<- Previous Day | Today | Next Day ->

All Data for 07 April 2020

 

Time A - D Temp A - D Dew Point A - D Humidity A - D Pressure A - D Wind A - D Wind Dir Gust A - D Rain Rate A - D Rain Total
00:00 4.4 1.8 83 1025.9 0.0 N 0.0 0.0 0.0
00:01 4.4 1.8 83 1025.8 0.0 N 0.0 0.0 0.0
00:02 4.3 1.7 83 1025.6 0.0 N 0.0 0.0 0.0
00:03 4.3 1.7 83 1025.9 0.0 N 0.0 0.0 0.0
00:04 4.3 1.7 83 1025.9 0.0 E 0.0 0.0 0.0
00:05 4.3 1.7 83 1025.9 0.0 E 0.0 0.0 0.0
00:06 4.3 1.7 83 1025.9 0.0 E 0.0 0.0 0.0
00:07 4.3 1.7 83 1025.9 0.0 E 0.0 0.0 0.0
00:08 4.3 1.7 83 1026.0 0.0 E 0.0 0.0 0.0
00:09 4.3 1.7 83 1025.9 0.0 N 0.0 0.0 0.0
00:10 4.3 1.7 83 1025.8 1.6 NE 1.6 0.0 0.0
00:11 4.3 1.7 83 1025.7 1.6 N 1.6 0.0 0.0
00:12 4.3 1.7 83 1026.0 1.6 N 1.6 0.0 0.0
00:13 4.3 1.8 84 1026.0 2.2 NE 2.2 0.0 0.0
00:14 4.3 1.8 84 1025.9 2.2 NE 2.2 0.0 0.0
00:15 4.3 1.8 84 1025.8 1.6 NE 2.2 0.0 0.0
00:17 4.2 1.7 84 1026.0 0.0 N 2.2 0.0 0.0
00:18 4.2 1.7 84 1025.9 0.0 N 2.2 0.0 0.0
00:19 4.2 1.7 84 1025.9 0.0 N 2.2 0.0 0.0
00:20 4.2 1.7 84 1026.2 0.0 N 2.2 0.0 0.0
00:21 4.2 1.7 84 1026.0 0.0 N 2.2 0.0 0.0
00:22 4.1 1.6 84 1026.0 0.0 N 2.2 0.0 0.0
00:23 4.1 1.6 84 1026.0 0.0 N 2.2 0.0 0.0
00:24 4.1 1.6 84 1026.0 0.0 N 2.2 0.0 0.0
00:25 4.1 1.6 84 1026.0 0.7 N 1.6 0.0 0.0
00:26 4.1 1.6 84 1026.0 0.7 N 1.6 0.0 0.0
00:27 4.1 1.6 84 1025.8 0.7 N 0.7 0.0 0.0
00:28 4.1 1.6 84 1026.0 0.7 N 0.7 0.0 0.0
00:29 4.1 1.6 84 1026.1 0.7 N 2.2 0.0 0.0
00:30 4.1 1.6 84 1026.1 0.7 NE 2.2 0.0 0.0
00:31 4.1 1.6 84 1026.0 0.7 NNE 2.2 0.0 0.0
00:32 4.1 1.6 84 1026.2 0.0 NW 2.2 0.0 0.0
00:33 4.0 1.5 84 1026.2 0.0 NW 2.2 0.0 0.0
00:34 4.0 1.5 84 1026.1 0.0 NW 2.2 0.0 0.0
00:35 4.0 1.5 84 1026.1 0.0 NW 2.2 0.0 0.0
00:37 4.0 1.5 84 1026.2 0.0 NW 2.2 0.0 0.0
00:38 4.0 1.5 84 1026.2 0.0 NW 2.2 0.0 0.0
00:39 4.0 1.5 84 1026.0 0.7 NW 0.7 0.0 0.0
00:40 4.0 1.5 84 1026.1 0.7 NW 0.7 0.0 0.0
00:41 3.9 1.4 84 1026.0 0.0 NW 0.7 0.0 0.0
00:42 3.9 1.4 84 1026.1 0.0 NW 0.7 0.0 0.0
00:43 3.9 1.4 84 1026.2 0.0 NW 0.7 0.0 0.0
00:44 3.9 1.6 85 1026.1 0.0 NW 0.7 0.0 0.0
00:45 3.9 1.6 85 1026.2 0.0 NW 0.7 0.0 0.0
00:46 3.8 1.5 85 1026.0 0.0 NW 0.7 0.0 0.0
00:47 3.8 1.5 85 1026.4 0.0 NW 0.7 0.0 0.0
00:48 3.8 1.5 85 1026.2 0.0 NW 0.7 0.0 0.0
00:49 3.8 1.5 85 1026.2 0.7 NW 0.7 0.0 0.0
00:50 3.8 1.5 85 1026.1 0.7 NW 0.7 0.0 0.0
00:51 3.8 1.5 85 1026.4 0.0 NW 0.7 0.0 0.0
00:52 3.8 1.5 85 1026.3 0.0 NW 0.7 0.0 0.0
00:53 3.7 1.4 85 1026.1 0.0 NW 0.7 0.0 0.0
00:54 3.7 1.4 85 1026.0 0.0 NW 0.7 0.0 0.0
00:55 3.7 1.4 85 1026.2 0.0 NW 0.7 0.0 0.0
00:56 3.7 1.4 85 1026.3 0.0 NW 0.7 0.0 0.0
00:57 3.7 1.4 85 1026.3 0.7 NW 0.7 0.0 0.0
00:58 3.7 1.4 85 1026.3 0.0 NW 0.7 0.0 0.0
00:59 3.8 1.5 85 1026.3 0.0 NW 0.7 0.0 0.0
01:01 3.8 1.5 85 1026.3 0.0 NW 0.7 0.0 0.0
01:02 3.8 1.5 85 1026.3 0.0 NW 0.7 0.0 0.0
01:03 3.8 1.5 85 1026.2 0.0 NW 0.7 0.0 0.0
01:04 3.8 1.5 85 1026.4 0.0 NW 0.7 0.0 0.0
01:05 3.8 1.5 85 1026.4 0.0 NW 0.7 0.0 0.0
01:06 4.2 2.4 88 1026.1 0.7 NW 0.7 0.0 0.0
01:07 4.2 2.4 88 1026.1 0.7 NW 0.7 0.0 0.0
01:08 4.2 2.4 88 1026.2 0.7 NW 0.7 0.0 0.0
01:09 4.3 2.5 88 1026.3 1.6 N 1.6 0.0 0.0
01:10 4.3 2.5 88 1026.5 1.6 N 1.6 0.0 0.0
01:11 4.3 2.7 89 1026.5 1.6 N 1.6 0.0 0.0
01:12 4.3 2.7 89 1026.0 1.6 N 1.6 0.0 0.0
01:13 4.5 2.8 89 1026.4 1.6 N 1.6 0.0 0.0
01:14 4.5 2.8 89 1026.4 2.2 NW 2.2 0.0 0.0
01:15 4.6 3.1 90 1026.4 2.2 N 2.2 0.0 0.0
01:16 4.6 3.1 90 1026.5 2.2 N 2.2 0.0 0.0
01:18 4.6 3.1 90 1026.3 2.2 N 2.2 0.0 0.0
01:19 4.8 3.3 90 1026.4 1.6 NE 2.2 0.0 0.0
01:20 4.8 3.3 90 1026.6 1.6 N 2.2 0.0 0.0
01:21 4.7 3.2 90 1026.5 0.7 N 2.2 0.0 0.0
01:22 4.7 3.2 90 1026.4 0.7 N 2.2 0.0 0.0
01:23 4.7 3.0 89 1026.6 0.0 NE 2.2 0.0 0.0
01:24 4.7 3.0 89 1026.6 0.0 NE 2.2 0.0 0.0
01:25 4.7 3.0 89 1026.4 0.0 NE 2.2 0.0 0.0
01:27 4.6 2.8 88 1026.5 2.2 N 2.2 0.0 0.0
01:28 4.6 2.8 88 1026.6 2.2 N 2.2 0.0 0.0
01:29 4.6 2.8 88 1026.5 2.2 N 2.2 0.0 0.0
01:30 4.6 2.8 88 1026.4 2.2 NE 2.2 0.0 0.0
01:31 4.6 2.8 88 1026.5 3.1 N 3.1 0.0 0.0
01:32 4.6 2.8 88 1026.5 3.1 N 3.1 0.0 0.0
01:33 4.6 2.8 88 1026.5 3.1 N 3.1 0.0 0.0
01:34 4.6 2.8 88 1026.3 2.2 NE 3.1 0.0 0.0
01:35 4.6 2.8 88 1026.3 2.2 NE 3.1 0.0 0.0
01:36 4.7 2.9 88 1026.4 3.1 NE 3.1 0.0 0.0
01:37 4.8 3.0 88 1026.6 2.2 NE 3.1 0.0 0.0
01:38 4.8 3.0 88 1026.2 2.2 NE 3.1 0.0 0.0
01:39 4.8 3.1 89 1026.5 3.1 N 3.1 0.0 0.0
01:41 5.0 3.3 89 1026.5 3.1 NE 3.1 0.0 0.0
01:42 5.0 3.3 89 1026.5 3.1 NE 3.1 0.0 0.0
01:43 5.0 3.3 89 1026.6 3.1 NE 3.1 0.0 0.0
01:44 5.0 3.3 89 1026.6 3.1 NE 3.1 0.0 0.0
01:45 5.0 3.3 89 1026.6 3.1 NE 3.1 0.0 0.0
01:46 5.1 3.4 89 1026.4 2.2 NE 3.1 0.0 0.0
01:47 5.1 3.4 89 1026.4 2.2 NE 3.1 0.0 0.0
01:48 5.1 3.4 89 1026.6 2.2 NE 3.1 0.0 0.0
01:49 5.2 3.5 89 1026.6 3.1 NE 3.1 0.0 0.0
01:50 5.2 3.5 89 1026.4 2.2 NE 3.1 0.0 0.0
01:51 5.2 3.5 89 1026.4 3.1 N 3.1 0.0 0.0
01:52 5.3 3.6 89 1026.5 3.1 N 3.1 0.0 0.0
01:53 5.3 3.6 89 1026.5 3.1 NE 3.1 0.0 0.0
01:54 5.3 3.6 89 1026.7 3.1 NE 3.1 0.0 0.0
01:55 5.3 3.6 89 1026.4 3.1 NE 3.1 0.0 0.0
01:56 5.4 3.9 90 1026.5 2.2 NE 3.1 0.0 0.0
01:57 5.4 3.9 90 1026.3 2.2 NE 3.1 0.0 0.0
01:58 5.5 4.0 90 1026.6 3.1 NE 3.1 0.0 0.0
02:00 5.6 4.1 90 1026.4 3.1 NE 3.8 0.0 0.0
02:01 5.6 4.1 90 1026.6 3.1 NE 3.8 0.0 0.0
02:02 5.6 4.1 90 1026.4 3.1 N 3.8 0.0 0.0
02:03 5.7 4.2 90 1026.6 3.1 NE 3.8 0.0 0.0
02:04 5.7 4.2 90 1026.5 3.1 NE 3.8 0.0 0.0
02:05 5.7 4.2 90 1026.3 3.8 NE 3.8 0.0 0.0
02:06 5.7 4.2 90 1026.4 3.8 NE 3.8 0.0 0.0
02:07 5.7 4.2 90 1026.4 3.8 NE 3.8 0.0 0.0
02:08 5.7 4.2 90 1026.2 3.1 NE 3.8 0.0 0.0
02:09 5.8 4.3 90 1026.3 3.1 N 3.8 0.0 0.0
02:10 5.8 4.1 89 1026.3 3.1 N 3.8 0.0 0.0
02:11 5.8 4.1 89 1026.3 3.1 N 3.8 0.0 0.0
02:12 5.8 4.1 89 1026.6 3.1 N 3.8 0.0 0.0
02:13 5.8 4.1 89 1026.5 3.8 N 3.8 0.0 0.0
02:14 5.8 4.1 89 1026.3 3.8 N 3.8 0.0 0.0
02:15 5.8 4.0 88 1026.3 3.8 NE 3.8 0.0 0.0
02:16 5.9 4.1 88 1026.3 3.8 N 3.8 0.0 0.0
02:17 5.9 4.1 88 1026.4 3.8 N 3.8 0.0 0.0
02:19 5.9 3.9 87 1026.4 2.2 N 3.8 0.0 0.0
02:20 5.9 3.9 87 1026.4 3.1 E 3.8 0.0 0.0
02:21 6.0 4.0 87 1026.3 3.1 N 3.8 0.0 0.0
02:22 6.0 3.8 86 1026.5 2.2 NE 3.8 0.0 0.0
02:23 6.0 3.8 86 1026.5 3.1 NE 3.8 0.0 0.0
02:24 6.0 3.8 86 1026.3 3.1 N 3.8 0.0 0.0
02:25 6.0 3.8 86 1026.3 3.1 N 3.8 0.0 0.0
02:26 6.0 3.8 86 1026.3 3.1 NE 3.8 0.0 0.0
02:27 6.0 3.8 86 1026.3 3.8 NE 3.8 0.0 0.0
02:28 6.0 3.7 85 1026.4 3.8 N 3.8 0.0 0.0
02:29 6.0 3.7 85 1026.3 3.8 N 3.8 0.0 0.0
02:30 6.0 3.7 85 1026.2 3.1 NE 3.8 0.0 0.0
02:31 6.0 3.7 85 1026.1 3.8 NE 3.8 0.0 0.0
02:32 6.0 3.7 85 1026.3 3.8 N 3.8 0.0 0.0
02:33 6.1 3.8 85 1026.4 3.8 NE 3.8 0.0 0.0
02:35 6.1 3.6 84 1026.1 3.1 NW 3.8 0.0 0.0
02:36 6.1 3.6 84 1026.3 3.1 N 3.8 0.0 0.0
02:37 6.1 3.6 84 1026.1 3.8 SW 3.8 0.0 0.0
02:38 6.1 3.6 84 1026.4 3.1 NE 3.8 0.0 0.0
02:39 6.2 3.7 84 1026.2 2.2 N 3.8 0.0 0.0
02:40 6.2 3.5 83 1026.4 2.2 N 3.8 0.0 0.0
02:41 6.2 3.5 83 1026.3 4.5 NE 4.5 0.0 0.0
02:42 6.2 3.5 83 1026.3 4.5 NE 4.5 0.0 0.0
02:43 6.2 3.5 83 1026.4 3.1 NE 4.5 0.0 0.0
02:44 6.2 3.5 83 1026.1 3.1 NE 4.5 0.0 0.0
02:45 6.2 3.5 83 1026.2 3.8 NE 4.5 0.0 0.0
02:46 6.2 3.5 83 1026.4 3.8 N 4.5 0.0 0.0
02:47 6.2 3.4 82 1026.3 3.8 N 4.5 0.0 0.0
02:48 6.2 3.4 82 1026.3 3.8 NE 4.5 0.0 0.0
02:49 6.3 3.5 82 1026.3 5.4 N 5.4 0.0 0.0
02:50 6.3 3.5 82 1026.3 4.5 NNE 5.4 0.0 0.0
02:52 6.3 3.5 82 1026.3 5.4 N 5.4 0.0 0.0
02:53 6.3 3.5 82 1026.4 5.4 NE 5.4 0.0 0.0
02:54 6.4 3.4 81 1026.3 5.4 N 5.4 0.0 0.0
02:55 6.4 3.4 81 1026.3 3.8 NNE 5.4 0.0 0.0
02:56 6.4 3.4 81 1026.3 3.8 N 5.4 0.0 0.0
02:57 6.4 3.4 81 1026.4 3.8 N 5.4 0.0 0.0
02:58 6.4 3.4 81 1026.2 4.5 W 5.4 0.0 0.0
02:59 6.4 3.4 81 1026.1 4.5 NE 5.4 0.0 0.0
03:00 6.4 3.4 81 1026.1 4.5 NE 5.4 0.0 0.0
03:01 6.4 3.4 81 1026.1 4.5 NE 5.4 0.0 0.0
03:02 6.4 3.4 81 1026.2 4.5 NE 5.4 0.0 0.0
03:03 6.4 3.4 81 1026.4 4.5 NE 5.4 0.0 0.0
03:04 6.4 3.4 81 1026.3 4.5 NE 5.4 0.0 0.0
03:05 6.4 3.4 81 1026.3 4.5 NE 5.4 0.0 0.0
03:06 6.4 3.4 81 1026.2 4.5 NE 4.5 0.0 0.0
03:07 6.4 3.4 81 1026.2 4.5 NE 4.5 0.0 0.0
03:08 6.5 3.3 80 1026.1 5.4 N 5.4 0.0 0.0
03:10 6.5 3.3 80 1026.2 4.5 NE 5.4 0.0 0.0
03:11 6.5 3.3 80 1026.4 5.4 N 5.4 0.0 0.0
03:12 6.5 3.3 80 1026.2 5.4 N 5.4 0.0 0.0
03:13 6.5 3.3 80 1026.1 3.8 N 5.4 0.0 0.0
03:14 6.5 3.3 80 1026.2 3.1 NE 5.4 0.0 0.0
03:15 6.6 3.4 80 1026.3 4.5 NNE 5.4 0.0 0.0
03:16 6.6 3.4 80 1026.2 4.5 N 5.4 0.0 0.0
03:17 6.6 3.4 80 1026.1 4.5 N 5.4 0.0 0.0
03:18 6.6 3.4 80 1026.2 4.5 N 5.4 0.0 0.0
03:19 6.6 3.2 79 1026.1 4.5 NE 5.4 0.0 0.0
03:20 6.6 3.2 79 1026.2 4.5 NE 5.4 0.0 0.0
03:21 6.6 3.2 79 1026.2 4.5 NE 5.4 0.0 0.0
03:22 6.6 3.2 79 1026.2 4.5 NE 5.4 0.0 0.0
03:23 6.6 3.2 79 1026.1 4.5 N 4.5 0.0 0.0
03:24 6.6 3.2 79 1026.4 3.8 NE 4.5 0.0 0.0
03:26 6.6 3.0 78 1026.2 4.5 N 4.5 0.0 0.0
03:27 6.6 3.0 78 1026.1 3.1 N 4.5 0.0 0.0
03:28 6.6 3.0 78 1026.4 4.5 N 4.5 0.0 0.0
03:29 6.6 3.0 78 1026.3 3.8 N 4.5 0.0 0.0
03:30 6.6 3.0 78 1026.3 3.1 N 4.5 0.0 0.0
03:31 6.6 3.0 78 1026.3 3.1 NE 4.5 0.0 0.0
03:32 6.6 3.0 78 1026.3 4.5 N 4.5 0.0 0.0
03:33 6.6 3.2 79 1026.5 4.5 NE 4.5 0.0 0.0
03:34 6.5 3.1 79 1026.2 4.5 NE 4.5 0.0 0.0
03:35 6.5 3.1 79 1026.3 4.5 N 4.5 0.0 0.0
03:36 6.5 3.1 79 1026.3 3.8 N 4.5 0.0 0.0
03:37 6.5 3.1 79 1026.2 3.8 NE 4.5 0.0 0.0
03:38 6.5 3.1 79 1026.3 3.8 N 4.5 0.0 0.0
03:39 6.5 3.3 80 1026.4 3.8 N 4.5 0.0 0.0
03:40 6.5 3.3 80 1026.4 3.8 N 4.5 0.0 0.0
03:41 6.5 3.3 80 1026.2 3.8 NE 4.5 0.0 0.0
03:43 6.5 3.3 80 1026.3 3.8 NE 4.5 0.0 0.0
03:44 6.5 3.3 80 1026.2 3.1 N 4.5 0.0 0.0
03:45 6.5 3.3 80 1026.1 3.1 NE 4.5 0.0 0.0
03:46 6.5 3.3 80 1026.1 3.1 NNE 4.5 0.0 0.0
03:47 6.5 3.3 80 1026.4 3.1 N 4.5 0.0 0.0
03:48 6.5 3.3 80 1026.2 3.1 N 4.5 0.0 0.0
03:49 6.5 3.3 80 1026.3 3.1 N 4.5 0.0 0.0
03:50 6.5 3.3 80 1026.3 3.1 N 4.5 0.0 0.0
03:51 6.5 3.3 80 1026.4 3.1 NE 4.5 0.0 0.0
03:52 6.5 3.3 80 1026.4 3.1 N 4.5 0.0 0.0
03:53 6.5 3.3 80 1026.2 2.2 N 3.8 0.0 0.0
03:54 6.5 3.3 80 1026.4 2.2 N 3.1 0.0 0.0
03:55 6.5 3.3 80 1026.4 2.2 NE 3.1 0.0 0.0
03:56 6.5 3.3 80 1026.4 2.2 N 3.1 0.0 0.0
03:57 6.5 3.3 80 1026.2 1.6 N 3.1 0.0 0.0
03:58 6.5 3.3 80 1026.2 1.6 N 3.1 0.0 0.0
03:59 6.5 3.3 80 1026.4 1.6 N 3.1 0.0 0.0
04:00 6.5 3.3 80 1026.4 2.2 N 3.1 0.0 0.0
04:02 6.4 3.2 80 1026.2 2.2 N 3.1 0.0 0.0
04:03 6.4 3.2 80 1026.3 2.2 N 3.1 0.0 0.0
04:04 6.4 3.2 80 1026.3 2.2 NE 3.1 0.0 0.0
04:05 6.4 3.2 80 1026.2 2.2 N 3.1 0.0 0.0
04:06 6.4 3.2 80 1026.4 2.2 N 3.8 0.0 0.0
04:07 6.4 3.2 80 1026.2 2.2 N 3.8 0.0 0.0
04:08 6.4 3.4 81 1026.2 2.2 NE 3.8 0.0 0.0
04:09 6.4 3.4 81 1026.4 2.2 NE 3.8 0.0 0.0
04:10 6.4 3.4 81 1026.2 2.2 N 3.8 0.0 0.0
04:11 6.4 3.4 81 1026.1 2.2 N 3.8 0.0 0.0
04:12 6.4 3.4 81 1026.2 2.2 NE 3.8 0.0 0.0
04:13 6.3 3.3 81 1026.1 3.1 N 3.8 0.0 0.0
04:14 6.3 3.3 81 1026.1 2.2 N 3.8 0.0 0.0
04:15 6.3 3.3 81 1026.3 2.2 N 3.8 0.0 0.0
04:16 6.3 3.3 81 1026.2 3.1 N 3.8 0.0 0.0
04:17 6.3 3.3 81 1026.2 3.1 N 3.1 0.0 0.0
04:19 6.4 3.4 81 1026.3 3.1 N 3.8 0.0 0.0
04:20 6.4 3.4 81 1026.2 3.1 N 3.8 0.0 0.0
04:21 6.4 3.4 81 1026.1 3.8 NNE 3.8 0.0 0.0
04:22 6.4 3.4 81 1026.3 3.1 N 3.8 0.0 0.0
04:23 6.4 3.4 81 1026.1 3.1 NNE 3.8 0.0 0.0
04:24 6.4 3.4 81 1026.2 3.1 N 3.8 0.0 0.0
04:25 6.4 3.4 81 1026.2 3.1 NE 3.8 0.0 0.0
04:26 6.4 3.4 81 1026.1 3.1 N 3.8 0.0 0.0
04:27 6.4 3.4 81 1025.9 3.1 NNE 3.8 0.0 0.0
04:28 6.4 3.4 81 1026.1 3.1 N 3.8 0.0 0.0
04:29 6.4 3.4 81 1025.9 3.1 N 3.8 0.0 0.0
04:30 6.4 3.4 81 1026.2 3.8 N 3.8 0.0 0.0
04:31 6.4 3.4 81 1026.0 3.8 N 3.8 0.0 0.0
04:32 6.4 3.4 81 1026.1 3.8 N 3.8 0.0 0.0
04:33 6.4 3.4 81 1026.3 3.1 N 3.8 0.0 0.0
04:34 6.4 3.4 81 1025.9 3.8 N 3.8 0.0 0.0
04:35 6.4 3.4 81 1026.2 3.1 N 3.8 0.0 0.0
04:37 6.4 3.4 81 1026.1 3.1 NE 3.8 0.0 0.0
04:38 6.4 3.4 81 1026.2 3.8 N 3.8 0.0 0.0
04:39 6.4 3.4 81 1026.2 3.8 NE 3.8 0.0 0.0
04:40 6.4 3.4 81 1026.1 3.1 N 3.8 0.0 0.0
04:41 6.4 3.4 81 1026.1 3.1 N 3.8 0.0 0.0
04:42 6.4 3.4 81 1026.0 3.1 NE 3.8 0.0 0.0
04:43 6.4 3.4 81 1025.9 3.8 N 3.8 0.0 0.0
04:44 6.4 3.4 81 1025.9 3.8 N 3.8 0.0 0.0
04:45 6.4 3.4 81 1025.9 3.1 NNE 3.8 0.0 0.0
04:46 6.4 3.4 81 1026.0 3.1 NE 3.8 0.0 0.0
04:47 6.5 3.5 81 1025.9 3.1 N 3.8 0.0 0.0
04:48 6.5 3.5 81 1026.0 3.1 NNE 3.8 0.0 0.0
04:49 6.5 3.5 81 1025.8 3.8 N 3.8 0.0 0.0
04:50 6.5 3.5 81 1025.8 3.1 N 3.8 0.0 0.0
04:51 6.5 3.5 81 1026.0 4.5 N 4.5 0.0 0.0
04:52 6.5 3.5 81 1026.3 3.8 NE 4.5 0.0 0.0
04:54 6.4 3.6 82 1026.1 2.2 N 4.5 0.0 0.0
04:55 6.4 3.6 82 1025.9 2.2 N 4.5 0.0 0.0
04:56 6.4 3.6 82 1026.2 2.2 NW 4.5 0.0 0.0
04:57 6.4 3.6 82 1026.0 2.2 NE 4.5 0.0 0.0
04:58 6.4 3.6 82 1026.1 2.2 N 4.5 0.0 0.0
04:59 6.4 3.6 82 1025.9 2.2 N 4.5 0.0 0.0
05:00 6.4 3.6 82 1025.9 2.2 N 4.5 0.0 0.0
05:01 6.4 3.6 82 1025.9 2.2 N 4.5 0.0 0.0
05:02 6.4 3.6 82 1026.0 2.2 N 3.1 0.0 0.0
05:03 6.4 3.6 82 1026.2 2.2 N 3.1 0.0 0.0
05:04 6.4 3.6 82 1026.0 2.2 N 3.1 0.0 0.0
05:05 6.4 3.6 82 1025.9 2.2 N 2.2 0.0 0.0
05:06 6.3 3.5 82 1026.0 3.8 N 3.8 0.0 0.0
05:07 6.3 3.5 82 1025.9 3.8 NNE 3.8 0.0 0.0
05:08 6.3 3.5 82 1026.0 3.1 N 3.8 0.0 0.0
05:10 6.2 3.4 82 1026.0 2.2 N 3.8 0.0 0.0
05:11 6.2 3.4 82 1026.1 2.2 N 3.8 0.0 0.0
05:12 6.2 3.4 82 1026.0 3.1 NE 3.8 0.0 0.0
05:13 6.2 3.4 82 1026.1 3.1 NE 3.8 0.0 0.0
05:14 6.2 3.4 82 1026.1 3.1 NE 3.8 0.0 0.0
05:15 6.2 3.4 82 1026.0 2.2 NE 3.8 0.0 0.0
05:16 6.2 3.4 82 1026.0 2.2 NE 3.8 0.0 0.0
05:17 6.2 3.4 82 1026.0 2.2 NE 3.8 0.0 0.0
05:18 6.2 3.4 82 1026.1 3.1 NW 3.8 0.0 0.0
05:19 6.2 3.4 82 1026.1 2.2 NW 3.8 0.0 0.0
05:20 6.2 3.4 82 1025.9 2.2 N 3.1 0.0 0.0
05:21 6.2 3.4 82 1026.0 2.2 NW 3.1 0.0 0.0
05:22 6.1 3.3 82 1026.0 2.2 NW 3.1 0.0 0.0
05:23 6.1 3.3 82 1026.1 1.6 N 3.1 0.0 0.0
05:24 6.1 3.4 83 1025.9 1.6 N 3.1 0.0 0.0
05:25 6.1 3.4 83 1026.1 2.2 N 3.1 0.0 0.0
05:27 6.1 3.4 83 1026.1 3.1 N 3.1 0.0 0.0
05:28 6.1 3.4 83 1026.1 3.8 NE 3.8 0.0 0.0
05:29 6.1 3.4 83 1026.1 3.8 N 3.8 0.0 0.0
05:30 6.1 3.4 83 1026.1 3.8 NW 3.8 0.0 0.0
05:31 6.1 3.4 83 1026.1 3.1 N 3.8 0.0 0.0
05:32 6.1 3.4 83 1026.1 3.1 N 3.8 0.0 0.0
05:33 6.1 3.4 83 1026.2 3.1 NW 3.8 0.0 0.0
05:34 6.1 3.4 83 1025.9 3.1 N 3.8 0.0 0.0
05:35 6.1 3.4 83 1026.1 2.2 N 3.8 0.0 0.0
05:36 6.1 3.4 83 1026.2 3.8 N 3.8 0.0 0.0
05:37 6.1 3.4 83 1026.1 3.1 N 3.8 0.0 0.0
05:38 6.1 3.6 84 1026.0 3.8 N 3.8 0.0 0.0
05:39 6.1 3.6 84 1026.2 3.8 N 3.8 0.0 0.0
05:40 6.1 3.6 84 1026.1 3.1 N 3.8 0.0 0.0
05:41 6.1 3.6 84 1026.0 2.2 N 3.8 0.0 0.0
05:43 6.1 3.6 84 1026.2 3.1 N 3.8 0.0 0.0
05:44 6.1 3.6 84 1026.1 3.8 NW 3.8 0.0 0.0
05:45 6.1 3.6 84 1026.0 3.1 N 3.8 0.0 0.0
05:46 6.1 3.6 84 1026.2 3.1 NW 3.8 0.0 0.0
05:47 6.0 3.5 84 1026.2 3.1 NE 3.8 0.0 0.0
05:48 6.0 3.5 84 1026.2 3.8 N 3.8 0.0 0.0
05:49 6.0 3.5 84 1026.0 3.8 NW 3.8 0.0 0.0
05:50 6.0 3.5 84 1026.1 3.8 NE 3.8 0.0 0.0
05:51 6.0 3.5 84 1026.1 3.8 NE 3.8 0.0 0.0
05:52 6.0 3.7 85 1026.2 3.8 NE 3.8 0.0 0.0
05:53 6.1 3.8 85 1026.2 3.1 N 3.8 0.0 0.0
05:54 6.1 3.8 85 1025.9 3.1 N 3.8 0.0 0.0
05:55 6.1 3.8 85 1026.1 3.1 NE 3.8 0.0 0.0
05:56 6.1 3.8 85 1026.0 3.8 N 3.8 0.0 0.0
05:57 6.1 3.8 85 1026.1 4.5 N 4.5 0.0 0.0
05:58 6.1 3.8 85 1026.1 3.8 N 4.5 0.0 0.0
05:59 6.1 3.9 86 1026.0 3.1 NW 4.5 0.0 0.0
06:00 6.1 3.9 86 1026.0 4.5 N 4.5 0.0 0.0
06:02 6.1 3.9 86 1026.1 4.5 N 4.5 0.0 0.0
06:03 6.1 3.9 86 1026.1 4.5 N 4.5 0.0 0.0
06:04 6.1 3.9 86 1026.2 4.5 N 4.5 0.0 0.0
06:05 6.1 3.9 86 1026.2 4.5 N 4.5 0.0 0.0
06:06 6.2 4.2 87 1026.0 3.8 N 5.4 0.0 0.0
06:07 6.2 4.2 87 1026.2 3.8 N 5.4 0.0 0.0
06:08 6.2 4.2 87 1026.2 6.0 N 6.0 0.0 0.0
06:09 6.2 4.2 87 1026.1 4.5 NE 6.0 0.0 0.0
06:10 6.3 4.3 87 1025.9 4.5 N 6.0 0.0 0.0
06:11 6.3 4.3 87 1026.0 4.5 NE 6.0 0.0 0.0
06:12 6.3 4.3 87 1026.0 4.5 NE 6.0 0.0 0.0
06:13 6.3 4.5 88 1026.3 3.8 N 6.0 0.0 0.0
06:14 6.3 4.5 88 1026.1 3.8 N 6.0 0.0 0.0
06:15 6.3 4.5 88 1026.2 3.8 N 6.0 0.0 0.0
06:16 6.3 4.5 88 1026.1 3.8 N 6.0 0.0 0.0
06:17 6.3 4.5 88 1026.1 3.8 N 6.0 0.0 0.0
06:18 6.3 4.5 88 1026.2 3.1 NE 6.0 0.0 0.0
06:19 6.3 4.5 88 1025.9 3.1 NE 4.5 0.0 0.0
06:20 6.3 4.5 88 1026.1 3.1 N 4.5 0.0 0.0
06:22 6.3 4.5 88 1026.1 3.1 WNW 4.5 0.0 0.0
06:23 6.3 4.5 88 1026.0 3.8 N 4.5 0.0 0.0
06:24 6.3 4.5 88 1026.1 3.8 N 4.5 0.0 0.0
06:25 6.3 4.5 88 1025.9 3.1 N 4.5 0.0 0.0
06:26 6.3 4.5 88 1026.4 3.8 N 4.5 0.0 0.0
06:27 6.3 4.5 88 1026.3 3.8 NNE 4.5 0.0 0.0
06:28 6.3 4.5 88 1026.0 4.5 NE 4.5 0.0 0.0
06:29 6.3 4.5 88 1026.2 3.8 NE 4.5 0.0 0.0
06:30 6.3 4.5 88 1026.3 3.1 N 4.5 0.0 0.0
06:31 6.3 4.5 88 1026.3 3.8 NE 4.5 0.0 0.0
06:32 6.3 4.5 88 1026.2 3.8 N 4.5 0.0 0.0
06:33 6.3 4.5 88 1026.1 4.5 N 4.5 0.0 0.0
06:34 6.3 4.5 88 1026.0 3.1 NW 4.5 0.0 0.0
06:35 6.3 4.5 88 1026.2 3.1 NE 4.5 0.0 0.0
06:36 6.3 4.5 88 1025.9 3.8 N 4.5 0.0 0.0
06:37 6.3 4.6 89 1026.1 4.5 NE 4.5 0.0 0.0
06:38 6.3 4.6 89 1026.3 3.8 NE 4.5 0.0 0.0
06:39 6.3 4.6 89 1026.0 3.8 NE 4.5 0.0 0.0
06:41 6.3 4.6 89 1026.2 5.4 N 5.4 0.0 0.0
06:42 6.3 4.6 89 1026.2 5.4 NE 5.4 0.0 0.0
06:43 6.3 4.6 89 1026.3 5.4 NE 5.4 0.0 0.0
06:44 6.3 4.6 89 1026.0 3.1 NE 5.4 0.0 0.0
06:45 6.4 4.7 89 1026.1 3.1 NW 5.4 0.0 0.0
06:46 6.4 4.7 89 1026.1 6.0 N 6.0 0.0 0.0
06:47 6.4 4.7 89 1026.2 3.1 N 6.0 0.0 0.0
06:48 6.4 4.7 89 1026.2 3.1 N 6.0 0.0 0.0
06:49 6.4 4.7 89 1026.1 3.1 N 6.0 0.0 0.0
06:50 6.4 4.7 89 1026.1 2.2 N 6.0 0.0 0.0
06:51 6.4 4.7 89 1025.9 3.1 NE 6.0 0.0 0.0
06:52 6.4 4.7 89 1026.1 2.2 N 6.0 0.0 0.0
06:53 6.4 4.7 89 1026.3 3.8 N 6.0 0.0 0.0
06:54 6.4 4.7 89 1025.9 2.2 N 6.0 0.0 0.0
06:55 6.3 4.6 89 1026.0 2.2 N 6.0 0.0 0.0
06:56 6.3 4.6 89 1026.1 3.1 NE 6.0 0.0 0.0
06:58 6.3 4.6 89 1026.0 2.2 N 3.8 0.0 0.0
06:59 6.3 4.6 89 1026.2 2.2 WNW 3.8 0.0 0.0
07:00 6.3 4.6 89 1026.1 2.2 WNW 3.8 0.0 0.0
07:01 6.3 4.6 89 1026.3 2.2 WNW 3.8 0.0 0.0
07:02 6.3 4.6 89 1026.3 2.2 WNW 3.8 0.0 0.0
07:03 6.2 4.4 88 1026.3 2.2 NW 3.1 0.0 0.0
07:04 6.2 4.4 88 1026.1 2.2 N 3.1 0.0 0.0
07:05 6.2 4.4 88 1026.2 2.2 WNW 3.1 0.0 0.0
07:06 6.2 4.4 88 1026.3 3.1 N 3.1 0.0 0.0
07:07 6.1 4.3 88 1026.1 3.1 NW 3.1 0.0 0.0
07:08 6.1 4.3 88 1026.0 1.6 NE 3.1 0.0 0.0
07:09 6.1 4.3 88 1026.1 6.0 N 6.0 0.0 0.0
07:10 6.1 4.3 88 1026.2 5.4 N 6.0 0.0 0.0
07:11 6.1 4.3 88 1026.3 6.0 N 6.0 0.0 0.0
07:12 6.1 4.3 88 1026.2 4.5 N 6.0 0.0 0.0
07:13 6.1 4.3 88 1026.3 5.4 NE 6.0 0.0 0.0
07:14 6.1 4.4 89 1026.0 6.9 N 6.9 0.0 0.0
07:16 6.2 4.5 89 1026.2 5.4 NE 6.9 0.0 0.0
07:17 6.2 4.5 89 1026.0 5.4 NE 6.9 0.0 0.0
07:18 6.2 4.5 89 1026.1 4.5 NE 6.9 0.0 0.0
07:19 6.2 4.5 89 1026.2 7.6 NE 7.6 0.0 0.0
07:20 6.2 4.5 89 1026.2 5.4 NE 7.6 0.0 0.0
07:21 6.2 4.7 90 1026.3 5.4 NE 7.6 0.0 0.0
07:22 6.3 4.8 90 1026.1 7.6 NE 7.6 0.0 0.0
07:23 6.3 4.8 90 1026.1 7.6 NE 7.6 0.0 0.0
07:24 6.3 4.8 90 1026.2 7.6 N 7.6 0.0 0.0
07:25 6.3 4.8 90 1026.2 5.4 N 7.6 0.0 0.0
07:26 6.4 4.9 90 1026.2 7.6 N 7.6 0.0 0.0
07:27 6.4 4.9 90 1026.3 6.0 NE 7.6 0.0 0.0
07:28 6.4 4.9 90 1026.2 6.0 NE 7.6 0.0 0.0
07:29 6.4 4.9 90 1026.2 8.3 N 8.3 0.0 0.0
07:30 6.5 5.0 90 1026.1 6.9 NE 8.3 0.0 0.0
07:31 6.5 5.0 90 1026.2 5.4 N 8.3 0.0 0.0
07:32 6.5 5.0 90 1026.3 5.4 N 8.3 0.0 0.0
07:33 6.6 5.1 90 1026.2 5.4 E 8.3 0.0 0.0
07:35 6.6 5.1 90 1026.2 6.0 NE 8.3 0.0 0.0
07:36 6.6 5.1 90 1026.2 6.0 NE 8.3 0.0 0.0
07:37 6.6 5.1 90 1026.4 6.0 NE 8.3 0.0 0.0
07:38 6.7 5.2 90 1026.1 4.5 N 8.3 0.0 0.0
07:39 6.7 5.2 90 1026.3 6.0 NE 8.3 0.0 0.0
07:40 6.7 5.2 90 1026.2 6.0 NE 6.0 0.0 0.0
07:41 6.8 5.4 91 1026.3 7.6 N 7.6 0.0 0.0
07:42 6.8 5.4 91 1026.1 5.4 N 7.6 0.0 0.0
07:43 6.8 5.4 91 1026.1 5.4 NNE 7.6 0.0 0.0
07:44 6.8 5.4 91 1026.3 5.4 NNE 7.6 0.0 0.0
07:45 6.9 5.5 91 1026.2 5.4 N 7.6 0.0 0.0
07:46 6.9 5.5 91 1026.3 6.0 N 7.6 0.0 0.0
07:47 6.9 5.5 91 1026.5 4.5 NNE 7.6 0.0 0.0
07:48 6.9 5.5 91 1026.3 4.5 NNE 7.6 0.0 0.0
07:49 7.0 5.6 91 1026.3 4.5 N 7.6 0.0 0.0
07:50 7.0 5.6 91 1026.3 5.4 NW 7.6 0.0 0.0
07:52 7.0 5.6 91 1026.2 6.0 NW 6.9 0.0 0.0
07:53 7.0 5.6 91 1026.3 6.9 NE 6.9 0.0 0.0
07:54 7.1 5.7 91 1026.2 5.4 N 6.9 0.0 0.0
07:55 7.1 5.7 91 1026.1 6.0 NNE 6.9 0.0 0.0
07:56 7.1 5.7 91 1026.1 6.0 NE 6.9 0.0 0.0
07:57 7.1 5.7 91 1026.3 6.9 N 6.9 0.0 0.0
07:58 7.2 5.8 91 1026.3 8.3 N 8.3 0.0 0.0
07:59 7.2 5.8 91 1026.3 8.3 N 8.3 0.0 0.0
08:00 7.2 5.8 91 1026.4 8.3 NE 8.3 0.0 0.0
08:01 7.2 5.8 91 1026.2 8.3 NE 8.3 0.0 0.0
08:02 7.2 5.8 91 1026.2 8.3 NE 8.3 0.0 0.0
08:03 7.2 5.8 91 1026.5 6.0 NE 8.3 0.0 0.0
08:04 7.2 5.8 91 1026.3 5.4 NE 8.3 0.0 0.0
08:05 7.2 5.8 91 1026.1 6.0 N 8.3 0.0 0.0
08:06 7.3 5.9 91 1026.2 4.5 NE 8.3 0.0 0.0
08:07 7.3 5.9 91 1026.2 6.0 N 8.3 0.0 0.0
08:09 7.3 5.8 90 1026.3 6.0 NE 8.3 0.0 0.0
08:10 7.3 5.8 90 1026.3 7.6 N 8.3 0.0 0.0
08:11 7.3 5.8 90 1026.2 7.6 N 8.3 0.0 0.0
08:12 7.3 5.8 90 1026.3 5.4 N 7.6 0.0 0.0
08:13 7.3 5.8 90 1026.2 6.0 NE 7.6 0.0 0.0
08:14 7.3 5.8 90 1026.3 6.9 NE 7.6 0.0 0.0
08:15 7.3 5.8 90 1026.3 6.0 E 7.6 0.0 0.0
08:16 7.3 5.8 90 1026.5 6.0 N 7.6 0.0 0.0
08:17 7.3 5.8 90 1026.3 6.9 NE 7.6 0.0 0.0
08:18 7.3 5.8 90 1026.1 3.8 NE 7.6 0.0 0.0
08:19 7.3 5.8 90 1026.3 8.3 N 8.3 0.0 0.0
08:20 7.3 5.8 90 1026.4 6.0 E 8.3 0.0 0.0
08:21 7.3 5.8 90 1026.2 6.0 E 8.3 0.0 0.0
08:22 7.3 5.8 90 1026.4 6.9 NW 8.3 0.0 0.0
08:23 7.3 5.8 90 1026.3 6.9 NE 8.3 0.0 0.0
08:24 7.3 5.8 90 1026.3 6.0 NNE 8.3 0.0 0.0
08:25 7.4 5.9 90 1026.3 6.0 E 8.3 0.0 0.0
08:26 7.4 5.9 90 1026.4 4.5 NE 8.3 0.0 0.0
08:27 7.4 5.9 90 1026.3 6.9 NE 8.3 0.0 0.0
08:29 7.4 5.9 90 1026.5 7.6 N 7.6 0.0 0.0
08:30 7.4 5.9 90 1026.4 4.5 NW 7.6 0.0 0.0
08:31 7.5 5.0 84 1026.3 6.9 N 7.6 0.0 0.0
08:32 7.5 5.0 84 1026.3 8.3 N 8.3 0.0 0.0
08:33 7.5 5.0 84 1026.3 9.2 N 9.2 0.0 0.0
08:34 7.5 5.0 84 1026.1 8.3 SE 9.2 0.0 0.0
08:35 7.6 5.1 84 1026.5 6.0 NE 9.2 0.0 0.0
08:36 7.6 5.1 84 1026.6 6.0 NE 9.2 0.0 0.0
08:37 7.6 5.1 84 1026.4 6.0 NW 9.2 0.0 0.0
08:38 7.6 5.1 84 1026.6 5.4 NW 9.2 0.0 0.0
08:39 7.6 5.1 84 1026.4 6.0 N 9.2 0.0 0.0
08:40 7.6 5.1 84 1026.6 6.0 N 9.2 0.0 0.0
08:41 7.7 5.2 84 1026.4 7.6 NW 9.2 0.0 0.0
08:42 7.7 5.2 84 1026.6 6.0 NE 9.2 0.0 0.0
08:43 7.7 5.2 84 1026.3 6.0 NE 9.2 0.0 0.0
08:44 7.8 5.3 84 1026.5 6.0 NE 9.2 0.0 0.0
08:45 7.8 5.3 84 1026.5 5.4 N 8.3 0.0 0.0
08:47 7.9 5.4 84 1026.5 5.4 W 7.6 0.0 0.0
08:48 7.9 5.4 84 1026.4 4.5 N 7.6 0.0 0.0
08:49 8.0 5.5 84 1026.4 4.5 NE 7.6 0.0 0.0
08:50 8.0 5.5 84 1026.4 8.3 NE 8.3 0.0 0.0
08:51 8.0 5.5 84 1026.2 5.4 N 8.3 0.0 0.0
08:52 8.0 5.5 84 1026.4 6.9 N 8.3 0.0 0.0
08:53 8.1 5.6 84 1026.5 3.1 NE 8.3 0.0 0.0
08:54 8.1 5.6 84 1026.3 10.7 N 10.7 0.0 0.0
08:55 8.1 5.6 84 1026.4 6.9 N 10.7 0.0 0.0
08:56 8.1 5.6 84 1026.3 6.0 N 10.7 0.0 0.0
08:57 8.2 5.7 84 1026.4 8.3 E 10.7 0.0 0.0
08:58 8.2 5.7 84 1026.2 9.8 NE 10.7 0.0 0.0
08:59 8.2 5.7 84 1026.3 6.0 N 10.7 0.0 0.0
09:00 8.2 5.7 84 1026.2 11.4 NE 11.4 0.0 0.0
09:01 8.2 5.7 84 1026.4 11.4 NE 11.4 0.0 0.0
09:02 8.2 5.7 84 1026.1 11.4 NE 11.4 0.0 0.0
09:03 8.2 5.7 84 1026.5 11.4 NE 11.4 0.0 0.0
09:05 8.2 5.7 84 1026.4 11.4 NE 11.4 0.0 0.0
09:06 8.4 5.9 84 1026.1 8.3 NE 11.4 0.0 0.0
09:07 8.4 5.9 84 1026.3 8.3 N 11.4 0.0 0.0
09:08 8.5 6.0 84 1026.3 9.8 NNE 11.4 0.0 0.0
09:09 8.5 5.8 83 1026.1 9.2 N 11.4 0.0 0.0
09:10 8.5 5.8 83 1026.2 10.7 NW 11.4 0.0 0.0
09:11 8.5 5.8 83 1026.1 5.4 N 11.4 0.0 0.0
09:12 8.6 5.9 83 1026.0 9.8 N 11.4 0.0 0.0
09:13 8.6 5.9 83 1026.2 9.2 N 11.4 0.0 0.0
09:14 8.6 5.9 83 1026.4 6.9 NE 11.4 0.0 0.0
09:15 8.6 5.9 83 1026.1 4.5 NE 11.4 0.0 0.0
09:16 8.6 5.9 83 1026.4 5.4 NE 11.4 0.0 0.0
09:17 8.7 6.0 83 1026.4 6.0 NE 10.7 0.0 0.0
09:18 8.7 6.0 83 1026.3 5.4 N 10.7 0.0 0.0
09:19 8.7 6.0 83 1026.2 5.4 N 10.7 0.0 0.0
09:20 8.8 6.1 83 1026.1 7.6 W 10.7 0.0 0.0
09:21 8.8 6.1 83 1026.1 5.4 N 10.7 0.0 0.0
09:22 8.8 6.1 83 1026.2 5.4 NE 9.8 0.0 0.0
09:23 8.8 6.1 83 1026.3 7.6 N 9.2 0.0 0.0
09:24 8.9 6.2 83 1026.4 6.9 N 8.3 0.0 0.0
09:25 8.9 6.2 83 1026.0 10.7 S 10.7 0.0 0.0
09:26 9.0 6.3 83 1026.3 4.5 NW 10.7 0.0 0.0
09:27 9.0 6.3 83 1026.0 5.4 N 10.7 0.0 0.0
09:29 9.0 6.3 83 1026.1 12.1 N 12.1 0.0 0.0
09:30 9.0 6.3 83 1026.3 5.4 N 12.1 0.0 0.0
09:31 9.1 6.4 83 1026.2 13.0 NE 13.0 0.0 0.0
09:32 9.1 6.4 83 1026.1 13.0 N 13.0 0.0 0.0
09:33 9.1 6.4 83 1026.4 9.2 NE 13.0 0.0 0.0
09:34 9.1 6.4 83 1026.3 5.4 NW 13.0 0.0 0.0
09:35 9.1 6.4 83 1026.3 5.4 NW 13.0 0.0 0.0
09:36 9.2 6.5 83 1026.1 6.9 NE 13.0 0.0 0.0
09:37 9.2 6.5 83 1026.1 6.0 NW 13.0 0.0 0.0
09:38 9.2 6.5 83 1026.2 7.6 N 13.0 0.0 0.0
09:39 9.3 6.6 83 1026.0 7.6 NNE 13.0 0.0 0.0
09:40 9.3 6.6 83 1026.0 6.9 N 13.0 0.0 0.0
09:41 9.3 6.6 83 1026.1 7.6 NW 13.0 0.0 0.0
09:42 9.3 6.6 83 1026.4 10.7 NNE 13.0 0.0 0.0
09:43 9.3 6.6 83 1026.1 9.2 NE 10.7 0.0 0.0
09:45 9.4 6.7 83 1026.2 6.9 NE 10.7 0.0 0.0
09:46 9.4 6.7 83 1026.1 6.0 E 10.7 0.0 0.0
09:47 9.5 6.8 83 1026.2 7.6 N 10.7 0.0 0.0
09:48 9.5 6.8 83 1026.0 8.3 NE 10.7 0.0 0.0
09:49 9.5 6.8 83 1026.3 9.2 N 10.7 0.0 0.0
09:50 9.5 6.8 83 1026.2 6.9 SE 10.7 0.0 0.0
09:51 9.5 6.8 83 1026.1 6.0 N 10.7 0.0 0.0
09:52 9.6 6.9 83 1026.2 3.1 NE 10.7 0.0 0.0
09:53 9.6 6.9 83 1026.2 6.9 N 9.2 0.0 0.0
09:54 9.6 6.9 83 1026.3 4.5 W 9.2 0.0 0.0
09:55 9.7 7.0 83 1026.3 6.9 NW 9.2 0.0 0.0
09:56 9.7 7.0 83 1026.1 9.8 NE 9.8 0.0 0.0
09:57 9.8 7.1 83 1026.2 9.2 NW 9.8 0.0 0.0
09:58 9.8 7.1 83 1026.3 9.2 N 9.8 0.0 0.0
09:59 9.8 7.1 83 1026.2 8.3 NE 9.8 0.0 0.0
10:00 9.9 7.2 83 1026.3 9.2 E 9.8 0.0 0.0
10:02 9.9 7.2 83 1026.2 9.2 E 9.8 0.0 0.0
10:03 9.9 7.2 83 1026.2 9.2 E 9.8 0.0 0.0
10:04 9.9 7.2 83 1026.2 9.2 E 9.8 0.0 0.0
10:05 9.9 7.2 83 1026.2 9.2 E 9.8 0.0 0.0
10:06 10.0 7.1 82 1026.1 11.4 N 11.4 0.0 0.0
10:07 10.1 7.2 82 1026.0 6.9 NW 11.4 0.0 0.0
10:08 10.1 7.2 82 1026.1 10.7 N 11.4 0.0 0.0
10:09 10.1 7.2 82 1026.1 7.6 N 11.4 0.0 0.0
10:10 10.2 7.3 82 1026.0 6.9 NE 11.4 0.0 0.0
10:11 10.2 7.3 82 1026.1 6.0 N 11.4 0.0 0.0
10:12 10.3 7.4 82 1026.3 9.2 N 11.4 0.0 0.0
10:13 10.3 7.4 82 1026.3 6.9 S 11.4 0.0 0.0
10:14 10.3 7.4 82 1026.2 6.9 S 11.4 0.0 0.0
10:15 10.3 7.4 82 1026.3 6.9 S 11.4 0.0 0.0
10:16 10.5 7.6 82 1026.0 9.2 NE 11.4 0.0 0.0
10:17 10.6 7.7 82 1026.2 8.3 NE 10.7 0.0 0.0
10:18 10.6 7.7 82 1026.1 8.3 NE 10.7 0.0 0.0
10:19 10.7 7.8 82 1026.0 8.3 NE 9.2 0.0 0.0
10:21 10.8 7.9 82 1026.3 7.6 NW 9.8 0.0 0.0
10:22 10.8 7.9 82 1026.2 8.3 W 9.8 0.0 0.0
10:23 10.9 8.0 82 1026.4 5.4 N 9.8 0.0 0.0
10:24 11.0 8.0 82 1026.1 6.9 NE 9.8 0.0 0.0
10:25 11.0 8.0 82 1026.0 6.9 N 9.8 0.0 0.0
10:26 11.0 8.0 82 1026.1 9.2 NE 9.8 0.0 0.0
10:27 11.1 8.1 82 1026.2 8.3 N 9.8 0.0 0.0
10:28 11.2 8.1 81 1026.2 8.3 N 9.8 0.0 0.0
10:29 11.2 8.1 81 1026.1 10.7 NE 10.7 0.0 0.0
10:30 11.2 8.1 81 1026.0 10.7 N 10.7 0.0 0.0
10:31 11.2 8.1 81 1026.3 9.2 N 10.7 0.0 0.0
10:32 11.3 8.2 81 1026.1 8.3 S 10.7 0.0 0.0
10:33 11.3 8.0 80 1026.3 8.3 SE 10.7 0.0 0.0
10:34 11.3 8.0 80 1026.2 12.1 N 12.1 0.0 0.0
10:35 11.3 8.0 80 1026.1 9.8 NE 12.1 0.0 0.0
10:36 11.3 8.0 80 1026.2 9.2 NE 12.1 0.0 0.0
10:37 11.3 8.0 80 1026.1 7.6 NE 12.1 0.0 0.0
10:38 11.3 8.0 80 1026.2 6.9 NE 12.1 0.0 0.0
10:40 11.4 8.1 80 1026.3 8.3 NW 12.1 0.0 0.0
10:41 11.4 8.1 80 1026.2 8.3 NW 12.1 0.0 0.0
10:42 11.4 7.9 79 1026.5 6.9 E 12.1 0.0 0.0
10:43 11.5 8.0 79 1026.1 6.9 SW 12.1 0.0 0.0
10:44 11.5 8.0 79 1026.2 8.3 NW 9.8 0.0 0.0
10:45 11.6 8.1 79 1026.4 12.1 NE 12.1 0.0 0.0
10:46 11.6 8.1 79 1026.3 7.6 N 12.1 0.0 0.0
10:47 11.6 8.1 79 1026.3 4.5 SW 12.1 0.0 0.0
10:48 11.7 8.2 79 1026.4 5.4 N 12.1 0.0 0.0
10:49 11.8 8.5 80 1026.3 12.1 N 12.1 0.0 0.0
10:50 11.8 8.3 79 1026.2 7.6 N 12.1 0.0 0.0
10:51 11.9 8.4 79 1026.0 8.3 N 12.1 0.0 0.0
10:52 11.9 8.4 79 1026.4 6.9 N 12.1 0.0 0.0
10:53 12.0 8.5 79 1026.3 8.3 NE 12.1 0.0 0.0
10:54 12.0 8.3 78 1026.3 13.0 NW 13.0 0.0 0.0
10:55 12.1 8.4 78 1026.2 13.0 NE 13.0 0.0 0.0
10:56 12.1 8.4 78 1026.4 9.8 W 13.0 0.0 0.0
10:57 12.2 8.5 78 1026.2 8.3 N 13.0 0.0 0.0
10:58 12.2 8.5 78 1026.2 6.9 N 13.0 0.0 0.0
10:59 12.3 8.6 78 1026.3 7.6 N 13.0 0.0 0.0
11:00 12.3 8.6 78 1026.0 7.6 N 13.0 0.0 0.0
11:01 12.3 8.6 78 1026.3 7.6 N 13.0 0.0 0.0
11:02 12.3 8.6 78 1026.2 7.6 N 13.0 0.0 0.0
11:03 12.3 8.6 78 1026.2 7.6 N 13.0 0.0 0.0
11:04 12.3 8.6 78 1026.2 7.6 N 13.0 0.0 0.0
11:05 12.3 8.6 78 1026.2 7.6 N 13.0 0.0 0.0
11:06 12.3 8.6 78 1026.2 7.6 N 9.8 0.0 0.0
11:07 12.3 8.6 78 1026.2 7.6 N 8.3 0.0 0.0
11:08 12.3 8.6 78 1026.3 7.6 N 7.6 0.0 0.0
11:09 12.3 8.6 78 1026.0 7.6 N 7.6 0.0 0.0
11:10 12.3 8.0 75 1026.2 9.2 NE 9.2 0.0 0.0
11:11 12.3 8.0 75 1026.1 9.2 NW 9.2 0.0 0.0
11:12 12.4 8.1 75 1026.1 6.0 NE 9.2 0.0 0.0
11:13 12.5 7.8 73 1026.3 11.4 NE 11.4 0.0 0.0
11:14 12.5 7.8 73 1026.3 9.8 N 11.4 0.0 0.0
11:15 12.6 7.7 72 1026.1 11.4 N 11.4 0.0 0.0
11:17 12.7 7.8 72 1026.1 7.6 N 11.4 0.0 0.0
11:18 12.7 7.8 72 1026.0 9.8 SW 11.4 0.0 0.0
11:19 12.8 7.9 72 1026.0 10.7 NE 11.4 0.0 0.0
11:20 12.8 7.9 72 1026.2 13.0 NE 13.0 0.0 0.0
11:21 12.8 7.9 72 1026.2 9.2 S 13.0 0.0 0.0
11:22 12.7 7.6 71 1026.2 8.3 NE 13.0 0.0 0.0
11:23 12.7 7.6 71 1026.0 5.4 N 13.0 0.0 0.0
11:24 12.6 7.5 71 1026.2 9.8 N 13.0 0.0 0.0
11:25 12.6 7.5 71 1026.1 12.1 N 13.0 0.0 0.0
11:26 12.6 7.5 71 1026.3 9.2 N 13.0 0.0 0.0
11:27 12.5 7.4 71 1026.2 6.0 W 13.0 0.0 0.0
11:28 12.5 7.4 71 1026.2 6.0 W 13.0 0.0 0.0
11:29 12.5 7.4 71 1026.3 5.4 NE 13.0 0.0 0.0
11:30 12.5 7.4 71 1026.1 5.4 N 13.0 0.0 0.0
11:31 12.5 7.4 71 1026.3 5.4 N 12.1 0.0 0.0
11:32 12.5 7.6 72 1026.1 6.0 S 12.1 0.0 0.0
11:33 12.5 7.6 72 1026.1 7.6 NW 12.1 0.0 0.0
11:34 12.6 7.7 72 1026.2 6.0 N 12.1 0.0 0.0
11:35 12.6 7.7 72 1026.3 5.4 NE 12.1 0.0 0.0
11:36 12.6 7.7 72 1026.3 6.9 N 9.2 0.0 0.0
11:37 12.7 7.8 72 1026.2 9.8 NW 9.8 0.0 0.0
11:39 12.7 7.6 71 1026.2 13.0 NW 13.0 0.0 0.0
11:40 12.7 7.6 71 1026.2 9.8 N 13.0 0.0 0.0
11:41 12.7 7.6 71 1026.1 9.8 NW 13.0 0.0 0.0
11:42 12.7 7.6 71 1026.3 9.2 SW 13.0 0.0 0.0
11:43 12.7 7.6 71 1026.1 6.9 NE 13.0 0.0 0.0
11:44 12.7 7.6 71 1026.1 7.6 N 13.0 0.0 0.0
11:45 12.8 7.7 71 1026.1 7.6 NW 13.0 0.0 0.0
11:46 12.8 7.7 71 1026.0 7.6 NE 13.0 0.0 0.0
11:47 12.8 7.7 71 1025.9 8.3 N 13.0 0.0 0.0
11:48 12.9 7.8 71 1026.0 9.8 N 13.0 0.0 0.0
11:49 12.9 7.8 71 1025.9 9.2 NE 13.0 0.0 0.0
11:50 12.9 7.8 71 1026.0 6.9 N 13.0 0.0 0.0
11:51 12.9 7.6 70 1026.0 9.8 N 13.0 0.0 0.0
11:52 12.9 7.6 70 1025.9 9.2 N 13.0 0.0 0.0
11:53 12.8 7.5 70 1026.1 9.2 N 13.0 0.0 0.0
11:54 12.8 7.5 70 1026.0 9.2 NE 10.7 0.0 0.0
11:55 12.8 7.5 70 1025.9 6.9 SE 10.7 0.0 0.0
11:56 12.6 7.3 70 1026.0 4.5 NW 10.7 0.0 0.0
11:58 12.5 7.0 69 1025.8 5.4 N 10.7 0.0 0.0
11:59 12.5 7.2 70 1025.9 6.9 NE 10.7 0.0 0.0
12:00 12.4 7.5 72 1025.9 8.3 N 10.7 0.0 0.0
12:01 12.4 7.5 72 1025.9 6.0 N 10.7 0.0 0.0
12:02 12.4 7.5 72 1025.9 6.0 NW 10.7 0.0 0.0
12:03 12.4 7.5 72 1025.9 5.4 SW 9.2 0.0 0.0
12:04 12.4 7.5 72 1025.8 11.4 N 11.4 0.0 0.0
12:05 12.4 7.5 72 1026.0 11.4 N 11.4 0.0 0.0
12:06 12.5 7.2 70 1026.0 8.3 N 11.4 0.0 0.0
12:07 12.6 7.3 70 1025.7 9.8 N 11.4 0.0 0.0
12:08 12.6 7.3 70 1025.7 9.8 N 11.4 0.0 0.0
12:09 12.7 7.4 70 1025.7 6.9 NW 11.4 0.0 0.0
12:10 12.8 7.7 71 1025.8 7.6 W 11.4 0.0 0.0
12:11 12.8 7.7 71 1025.8 6.9 S 11.4 0.0 0.0
12:12 12.9 7.8 71 1025.9 6.9 NE 11.4 0.0 0.0
12:13 12.9 7.8 71 1025.7 7.6 NE 11.4 0.0 0.0
12:14 12.9 7.6 70 1025.6 9.2 NE 11.4 0.0 0.0
12:15 12.9 7.6 70 1025.8 6.9 N 11.4 0.0 0.0
12:16 12.9 7.6 70 1025.7 7.6 NE 9.8 0.0 0.0
12:18 12.8 7.3 69 1025.6 9.2 NE 11.4 0.0 0.0
12:19 12.7 7.2 69 1025.9 6.9 NE 11.4 0.0 0.0
12:20 12.7 7.2 69 1025.7 9.8 NE 11.4 0.0 0.0
12:21 12.7 7.2 69 1025.8 6.9 N 11.4 0.0 0.0
12:22 12.7 7.2 69 1025.7 6.9 N 11.4 0.0 0.0
12:23 12.6 7.1 69 1025.8 4.5 N 11.4 0.0 0.0
12:24 12.6 7.1 69 1025.8 5.4 N 11.4 0.0 0.0
12:25 12.6 7.3 70 1025.7 5.4 NE 11.4 0.0 0.0
12:26 12.7 7.4 70 1025.5 6.0 N 11.4 0.0 0.0
12:27 12.7 7.4 70 1025.7 8.3 NW 11.4 0.0 0.0
12:28 12.7 7.4 70 1025.8 8.3 NE 9.8 0.0 0.0
12:29 12.7 7.4 70 1025.6 8.3 NE 9.8 0.0 0.0
12:30 12.7 7.2 69 1025.5 6.9 N 9.8 0.0 0.0
12:31 12.7 7.2 69 1025.8 6.9 NW 8.3 0.0 0.0
12:32 12.7 7.2 69 1025.8 6.9 NW 8.3 0.0 0.0
12:33 12.6 7.1 69 1025.7 11.4 N 11.4 0.0 0.0
12:34 12.6 6.9 68 1025.7 9.8 NW 11.4 0.0 0.0
12:36 12.6 6.9 68 1025.7 8.3 NE 11.4 0.0 0.0
12:37 12.6 6.9 68 1025.7 5.4 NE 11.4 0.0 0.0
12:38 12.6 6.9 68 1025.6 12.1 W 12.1 0.0 0.0
12:39 12.7 6.9 68 1025.7 11.4 N 12.1 0.0 0.0
12:40 12.7 6.9 68 1025.7 11.4 N 12.1 0.0 0.0
12:41 12.7 6.7 67 1025.7 11.4 NW 12.1 0.0 0.0
12:42 12.7 6.7 67 1025.8 7.6 N 12.1 0.0 0.0
12:43 12.7 6.7 67 1025.5 9.8 N 12.1 0.0 0.0
12:44 12.7 6.7 67 1025.5 9.8 N 12.1 0.0 0.0
12:45 12.7 6.7 67 1025.6 9.2 NE 12.1 0.0 0.0
12:46 12.7 6.7 67 1025.4 6.9 NE 12.1 0.0 0.0
12:47 12.7 6.7 67 1025.7 7.6 NE 12.1 0.0 0.0
12:48 12.7 6.9 68 1025.5 5.4 N 12.1 0.0 0.0
12:49 12.7 6.9 68 1025.7 7.6 N 12.1 0.0 0.0
12:50 12.7 6.9 68 1025.7 11.4 NW 11.4 0.0 0.0
12:51 12.7 6.9 68 1025.6 9.2 NE 11.4 0.0 0.0
12:52 12.7 6.7 67 1025.7 9.2 NW 11.4 0.0 0.0
12:53 12.7 6.7 67 1025.5 9.2 N 11.4 0.0 0.0
12:55 12.6 6.4 66 1025.4 9.2 W 12.1 0.0 0.0
12:56 12.6 6.4 66 1025.5 6.9 NE 12.1 0.0 0.0
12:57 12.6 6.4 66 1025.5 11.4 NE 12.1 0.0 0.0
12:58 12.6 6.4 66 1025.7 8.3 N 12.1 0.0 0.0
12:59 12.6 6.4 66 1025.6 9.2 W 12.1 0.0 0.0
13:00 12.6 6.4 66 1025.3 9.2 W 12.1 0.0 0.0
13:01 12.6 6.4 66 1025.6 9.2 W 12.1 0.0 0.0
13:02 12.6 6.4 66 1025.7 9.2 W 12.1 0.0 0.0
13:03 12.6 6.4 66 1025.4 9.2 W 12.1 0.0 0.0
13:04 12.6 6.4 66 1025.4 9.2 W 12.1 0.0 0.0
13:05 12.6 6.4 66 1025.5 9.2 W 11.4 0.0 0.0
13:06 12.6 6.4 66 1025.6 9.2 W 11.4 0.0 0.0
13:07 12.6 6.4 66 1025.6 9.2 W 11.4 0.0 0.0
13:08 12.6 6.4 66 1025.5 9.2 W 9.2 0.0 0.0
13:09 12.7 6.5 66 1025.8 11.4 NE 11.4 0.0 0.0
13:10 12.7 6.5 66 1025.6 11.4 N 11.4 0.0 0.0
13:11 12.7 6.5 66 1025.5 8.3 N 11.4 0.0 0.0
13:12 12.7 6.5 66 1025.6 8.3 NW 11.4 0.0 0.0
13:13 12.7 6.5 66 1025.4 6.0 NW 11.4 0.0 0.0
13:14 12.7 6.5 66 1025.6 10.7 NE 11.4 0.0 0.0
13:16 12.7 6.5 66 1025.6 6.9 NNE 11.4 0.0 0.0
13:17 12.8 6.6 66 1025.5 6.9 N 11.4 0.0 0.0
13:18 12.8 6.6 66 1025.4 12.1 NE 12.1 0.0 0.0
13:19 12.9 6.7 66 1025.6 9.8 N 12.1 0.0 0.0
13:20 12.9 6.7 66 1025.4 13.6 NE 13.6 0.0 0.0
13:21 13.0 6.8 66 1025.5 10.7 NE 13.6 0.0 0.0
13:22 13.0 6.8 66 1025.4 6.0 E 13.6 0.0 0.0
13:23 13.0 6.8 66 1025.5 10.7 N 13.6 0.0 0.0
13:24 13.0 6.8 66 1025.5 10.7 N 13.6 0.0 0.0
13:25 13.0 6.8 66 1025.4 9.2 N 13.6 0.0 0.0
13:26 13.1 6.9 66 1025.7 13.0 NE 13.6 0.0 0.0
13:27 13.1 6.9 66 1025.4 12.1 E 13.6 0.0 0.0
13:28 13.1 6.9 66 1025.4 11.4 NE 13.6 0.0 0.0
13:29 13.1 6.9 66 1025.4 8.3 NW 13.6 0.0 0.0
13:30 13.1 6.9 66 1025.7 9.2 N 13.6 0.0 0.0
13:31 13.2 7.0 66 1025.4 10.7 N 13.0 0.0 0.0
13:32 13.2 6.8 65 1025.6 15.2 N 15.2 0.0 0.0
13:34 13.2 6.8 65 1025.4 12.1 E 15.2 0.0 0.0
13:35 13.1 6.4 64 1025.5 11.4 N 15.2 0.0 0.0
13:36 13.1 6.4 64 1025.7 12.1 S 15.2 0.0 0.0
13:37 13.1 6.4 64 1025.5 12.1 S 15.2 0.0 0.0
13:38 13.1 6.4 64 1025.6 9.8 W 15.2 0.0 0.0
13:39 13.1 6.4 64 1025.6 13.0 N 15.2 0.0 0.0
13:40 13.1 6.4 64 1025.6 8.3 SW 15.2 0.0 0.0
13:41 13.1 6.4 64 1025.5 9.8 N 15.2 0.0 0.0
13:42 13.2 6.5 64 1025.4 9.8 N 13.0 0.0 0.0
13:43 13.2 6.5 64 1025.4 12.1 N 13.0 0.0 0.0
13:44 13.2 6.5 64 1025.6 12.1 NE 13.0 0.0 0.0
13:45 13.2 6.5 64 1025.6 10.7 NE 13.0 0.0 0.0
13:46 13.3 6.6 64 1025.5 13.0 NW 13.0 0.0 0.0
13:47 13.4 7.0 65 1025.5 10.7 NE 13.0 0.0 0.0
13:48 13.4 7.0 65 1025.7 13.0 SW 13.0 0.0 0.0
13:49 13.7 7.5 66 1025.6 10.7 NW 13.0 0.0 0.0
13:50 13.8 7.6 66 1025.6 7.6 N 13.0 0.0 0.0
13:51 14.0 7.8 66 1025.2 8.3 NW 13.0 0.0 0.0
13:53 14.4 8.4 67 1025.4 6.9 N 13.0 0.0 0.0
13:54 14.5 8.5 67 1025.5 7.6 SSW 13.0 0.0 0.0
13:55 14.7 8.4 66 1025.5 7.6 N 13.6 0.0 0.0
13:56 14.7 8.4 66 1025.5 7.6 NW 13.6 0.0 0.0
13:57 14.8 8.3 65 1025.6 5.4 NE 13.6 0.0 0.0
13:58 14.8 8.3 65 1025.6 6.9 NE 13.6 0.0 0.0
13:59 14.8 8.1 64 1025.7 6.0 N 13.6 0.0 0.0
14:00 14.8 8.1 64 1025.6 7.6 N 13.6 0.0 0.0
14:01 14.8 8.1 64 1025.5 11.4 NW 13.6 0.0 0.0
14:02 14.8 8.1 64 1025.5 11.4 W 13.6 0.0 0.0
14:03 14.8 8.1 64 1025.3 9.8 NE 13.6 0.0 0.0
14:04 14.8 8.1 64 1025.2 9.8 NE 13.6 0.0 0.0
14:05 14.8 8.1 64 1025.5 6.9 SE 13.6 0.0 0.0
14:06 14.8 7.8 63 1025.5 8.3 NW 11.4 0.0 0.0
14:07 14.8 7.8 63 1025.3 9.8 N 11.4 0.0 0.0
14:08 14.8 7.8 63 1025.5 7.6 NW 11.4 0.0 0.0
14:09 14.7 7.7 63 1025.5 11.4 N 11.4 0.0 0.0
14:10 14.7 7.7 63 1025.4 11.4 N 11.4 0.0 0.0
14:11 14.6 7.6 63 1025.5 10.7 W 11.4 0.0 0.0
14:13 14.6 7.9 64 1025.3 5.4 NE 11.4 0.0 0.0
14:14 14.6 7.9 64 1025.5 8.3 N 11.4 0.0 0.0
14:15 14.5 7.8 64 1025.3 7.6 NE 11.4 0.0 0.0
14:16 14.5 7.8 64 1025.4 6.9 N 11.4 0.0 0.0
14:17 14.5 7.8 64 1025.5 6.0 NE 11.4 0.0 0.0
14:18 14.5 7.8 64 1025.2 5.4 NE 11.4 0.0 0.0
14:19 14.5 7.8 64 1025.5 4.5 NW 11.4 0.0 0.0
14:20 14.5 8.0 65 1025.4 8.3 W 10.7 0.0 0.0
14:21 14.5 8.0 65 1025.3 8.3 NE 10.7 0.0 0.0
14:22 14.5 8.0 65 1025.2 7.6 N 9.2 0.0 0.0
14:23 14.5 8.0 65 1025.3 6.9 WNW 9.2 0.0 0.0
14:24 14.6 8.3 66 1025.3 6.9 N 9.2 0.0 0.0
14:25 14.6 8.3 66 1025.5 6.9 E 9.2 0.0 0.0
14:26 14.7 8.4 66 1025.0 9.2 N 9.2 0.0 0.0
14:27 14.8 8.5 66 1025.3 12.1 N 12.1 0.0 0.0
14:28 14.8 8.5 66 1025.2 5.4 NW 12.1 0.0 0.0
14:29 14.7 8.2 65 1025.1 9.8 N 12.1 0.0 0.0
14:30 14.7 8.2 65 1025.2 9.8 NNW 12.1 0.0 0.0
14:31 14.7 8.2 65 1025.1 9.2 E 12.1 0.0 0.0
14:33 14.6 8.1 65 1025.3 8.3 N 12.1 0.0 0.0
14:34 14.6 8.1 65 1025.1 5.4 N 12.1 0.0 0.0
14:35 14.5 8.0 65 1025.0 11.4 NW 12.1 0.0 0.0
14:36 14.5 8.0 65 1025.1 9.8 NW 12.1 0.0 0.0
14:37 14.4 7.9 65 1025.1 6.9 NE 11.4 0.0 0.0
14:38 14.4 7.9 65 1025.1 7.6 SW 11.4 0.0 0.0
14:39 14.4 7.9 65 1025.1 9.8 N 11.4 0.0 0.0
14:40 14.4 7.9 65 1025.2 9.8 N 11.4 0.0 0.0
14:41 14.4 7.9 65 1025.2 9.8 N 11.4 0.0 0.0
14:42 14.4 7.9 65 1025.1 13.6 NE 15.9 0.0 0.0
14:43 14.4 8.1 66 1025.0 11.4 N 15.9 0.0 0.0
14:44 14.3 8.0 66 1025.2 12.1 NE 15.9 0.0 0.0
14:45 14.3 8.0 66 1025.1 9.8 N 15.9 0.0 0.0
14:46 14.3 8.0 66 1025.0 8.3 N 15.9 0.0 0.0
14:47 14.3 8.0 66 1025.2 8.3 N 15.9 0.0 0.0
14:49 14.4 8.4 67 1025.0 9.8 N 15.9 0.0 0.0
14:50 14.4 8.4 67 1025.0 9.8 NW 15.9 0.0 0.0
14:51 14.5 8.5 67 1025.1 9.8 N 15.9 0.0 0.0
14:53 14.5 8.5 67 1025.1 12.1 E 13.0 0.0 0.0
14:54 14.5 8.5 67 1025.0 6.9 NE 13.0 0.0 0.0
14:55 14.5 8.5 67 1024.9 8.3 N 13.0 0.0 0.0
14:56 14.5 8.5 67 1025.1 11.4 N 13.0 0.0 0.0
14:57 14.5 8.5 67 1025.1 9.2 N 13.0 0.0 0.0
14:58 14.5 8.5 67 1025.1 9.2 NW 13.0 0.0 0.0
14:59 14.5 8.5 67 1025.3 9.2 N 13.0 0.0 0.0
15:00 14.5 8.5 67 1025.0 9.2 N 13.0 0.0 0.0
15:01 14.5 8.5 67 1025.2 9.2 N 13.0 0.0 0.0
15:02 14.5 8.5 67 1025.1 9.2 N 13.0 0.0 0.0
15:03 14.5 8.5 67 1025.0 9.2 N 11.4 0.0 0.0
15:04 14.5 8.5 67 1025.0 9.2 N 11.4 0.0 0.0
15:05 14.5 8.5 67 1024.9 9.2 N 11.4 0.0 0.0
15:06 14.5 8.5 67 1025.1 9.2 N 11.4 0.0 0.0
15:07 14.6 8.5 67 1025.3 13.0 NW 13.0 0.0 0.0
15:08 14.6 8.5 67 1024.9 8.3 NE 13.0 0.0 0.0
15:09 14.6 8.5 67 1025.0 10.7 NW 13.0 0.0 0.0
15:10 14.6 8.5 67 1025.1 9.8 NW 13.0 0.0 0.0
15:11 14.6 8.5 67 1025.1 13.0 N 13.0 0.0 0.0
15:12 14.6 8.5 67 1025.0 13.0 NW 13.0 0.0 0.0
15:13 14.6 8.5 67 1024.9 10.7 NE 13.0 0.0 0.0
15:14 14.6 8.5 67 1024.9 12.1 WNW 13.0 0.0 0.0
15:15 14.5 8.2 66 1025.1 11.4 SE 13.0 0.0 0.0
15:16 14.5 8.2 66 1024.8 7.6 N 13.0 0.0 0.0
15:17 14.5 8.5 67 1024.9 7.6 NE 13.0 0.0 0.0
15:19 14.5 8.5 67 1025.0 7.6 N 13.0 0.0 0.0
15:20 14.5 8.5 67 1024.9 10.7 NE 13.0 0.0 0.0
15:21 14.5 8.7 68 1025.0 9.2 NE 13.0 0.0 0.0
15:22 14.5 8.7 68 1024.9 7.6 E 12.1 0.0 0.0
15:23 14.5 8.7 68 1025.0 9.2 NW 12.1 0.0 0.0
15:24 14.5 8.7 68 1025.0 9.2 N 11.4 0.0 0.0
15:25 14.5 8.5 67 1025.0 15.2 N 15.2 0.0 0.0
15:26 14.5 8.5 67 1025.0 6.9 NE 15.2 0.0 0.0
15:27 14.5 8.5 67 1024.8 6.9 NW 15.2 0.0 0.0
15:28 14.5 8.5 67 1024.9 8.3 E 15.2 0.0 0.0
15:29 14.4 8.4 67 1025.0 9.2 SW 15.2 0.0 0.0
15:30 14.4 8.4 67 1024.7 6.0 N 15.2 0.0 0.0
15:31 14.4 8.6 68 1024.7 6.9 S 15.2 0.0 0.0
15:32 14.4 8.6 68 1024.8 6.0 NE 15.2 0.0 0.0
15:33 14.5 8.7 68 1024.7 6.9 N 15.2 0.0 0.0
15:34 14.5 8.7 68 1024.9 8.3 NW 15.2 0.0 0.0
15:35 14.6 9.0 69 1025.0 8.3 NNW 15.2 0.0 0.0
15:36 14.6 9.0 69 1024.9 7.6 NW 9.2 0.0 0.0
15:37 14.7 9.1 69 1024.7 11.4 W 11.4 0.0 0.0
15:39 14.7 8.9 68 1024.9 6.9 E 11.4 0.0 0.0
15:40 14.7 8.9 68 1024.7 6.9 N 11.4 0.0 0.0
15:41 14.7 8.6 67 1024.7 9.8 NE 11.4 0.0 0.0
15:42 14.7 8.6 67 1024.9 7.6 W 11.4 0.0 0.0
15:43 14.6 8.5 67 1024.7 9.2 SE 11.4 0.0 0.0
15:44 14.5 8.5 67 1024.6 7.6 N 11.4 0.0 0.0
15:45 14.5 8.5 67 1024.8 6.0 W 11.4 0.0 0.0
15:46 14.5 8.5 67 1024.7 6.0 W 11.4 0.0 0.0
15:47 14.5 8.5 67 1024.5 6.0 W 11.4 0.0 0.0
15:48 14.4 8.1 66 1024.6 8.3 NE 9.8 0.0 0.0
15:49 14.3 8.3 67 1024.8 12.1 SW 12.1 0.0 0.0
15:50 14.3 8.3 67 1024.7 12.1 NE 12.1 0.0 0.0
15:51 14.3 8.3 67 1024.7 12.1 NE 12.1 0.0 0.0
15:52 14.2 7.9 66 1024.5 9.2 N 12.1 0.0 0.0
15:53 14.1 7.8 66 1024.6 9.8 N 12.1 0.0 0.0
15:54 14.0 7.8 66 1024.9 11.4 N 12.1 0.0 0.0
15:55 14.0 7.8 66 1024.7 6.9 NW 12.1 0.0 0.0
15:56 13.9 7.7 66 1024.9 7.6 NE 12.1 0.0 0.0
15:57 13.8 7.6 66 1024.6 12.1 N 12.1 0.0 0.0
15:58 13.8 7.6 66 1024.6 12.1 W 12.1 0.0 0.0
15:59 13.8 7.6 66 1024.8 12.1 NE 12.1 0.0 0.0
16:00 13.7 7.5 66 1024.7 11.4 E 12.1 0.0 0.0
16:01 13.6 7.4 66 1024.6 9.2 W 12.1 0.0 0.0
16:03 13.5 7.3 66 1024.9 7.6 NE 12.1 0.0 0.0
16:04 13.4 7.2 66 1025.0 6.0 NE 12.1 0.0 0.0
16:05 13.4 7.2 66 1024.8 5.4 SW 12.1 0.0 0.0
16:06 13.4 7.2 66 1024.8 6.9 NW 12.1 0.0 0.0
16:07 13.4 7.2 66 1024.6 3.8 N 12.1 0.0 0.0
16:08 13.4 7.2 66 1024.8 3.8 N 12.1 0.0 0.0
16:09 13.3 7.3 67 1024.8 6.9 N 11.4 0.0 0.0
16:10 13.3 7.3 67 1024.6 9.2 NE 10.7 0.0 0.0
16:11 13.2 7.2 67 1024.8 9.2 NE 9.8 0.0 0.0
16:12 13.2 7.2 67 1024.7 9.2 NE 9.8 0.0 0.0
16:13 13.2 7.2 67 1024.8 8.3 NW 9.2 0.0 0.0
16:14 13.1 7.1 67 1024.8 8.3 NW 9.2 0.0 0.0
16:15 13.1 7.1 67 1024.9 6.9 NE 9.2 0.0 0.0
16:16 13.1 7.1 67 1024.9 5.4 NNE 9.2 0.0 0.0
16:17 13.1 7.1 67 1024.8 6.9 NW 9.2 0.0 0.0
16:18 13.0 7.0 67 1024.8 7.6 NW 9.2 0.0 0.0
16:19 13.0 7.0 67 1024.7 9.8 N 9.8 0.0 0.0
16:20 13.0 7.0 67 1024.6 9.2 N 9.8 0.0 0.0
16:21 13.0 6.8 66 1024.6 9.2 NE 9.8 0.0 0.0
16:23 12.9 6.7 66 1024.8 6.9 NW 10.7 0.0 0.0
16:24 12.9 6.7 66 1024.6 6.9 NW 10.7 0.0 0.0
16:25 12.9 6.7 66 1024.8 9.8 NE 10.7 0.0 0.0
16:26 12.9 6.7 66 1024.6 9.8 NE 10.7 0.0 0.0
16:27 12.9 6.7 66 1024.6 9.2 W 10.7 0.0 0.0
16:28 12.9 6.7 66 1024.6 9.2 W 10.7 0.0 0.0
16:29 12.9 6.7 66 1024.4 10.7 N 10.7 0.0 0.0
16:30 12.9 6.7 66 1024.6 10.7 N 10.7 0.0 0.0
16:31 12.9 6.7 66 1024.6 10.7 N 10.7 0.0 0.0
16:32 12.9 6.7 66 1024.7 10.7 N 10.7 0.0 0.0
16:33 13.0 6.8 66 1024.6 11.4 SW 11.4 0.0 0.0
16:34 13.0 6.8 66 1024.7 11.4 SW 11.4 0.0 0.0
16:35 13.0 6.8 66 1024.6 5.4 W 11.4 0.0 0.0
16:36 13.0 6.8 66 1024.6 6.9 NE 11.4 0.0 0.0
16:37 13.0 6.8 66 1024.6 9.2 N 11.4 0.0 0.0
16:38 13.0 6.8 66 1024.5 9.2 N 11.4 0.0 0.0
16:39 13.2 7.0 66 1024.7 10.7 W 11.4 0.0 0.0
16:41 13.3 7.1 66 1024.8 9.2 W 11.4 0.0 0.0
16:42 13.4 7.2 66 1024.5 8.3 N 11.4 0.0 0.0
16:43 13.4 7.2 66 1024.5 8.3 N 11.4 0.0 0.0
16:44 13.6 7.4 66 1024.5 6.9 N 10.7 0.0 0.0
16:45 13.6 7.4 66 1024.4 6.9 N 10.7 0.0 0.0
16:46 13.7 7.5 66 1024.5 6.9 SE 10.7 0.0 0.0
16:47 13.7 7.5 66 1024.5 6.9 SE 10.7 0.0 0.0
16:48 13.9 7.7 66 1024.7 6.0 NW 10.7 0.0 0.0
16:49 14.0 7.8 66 1024.6 6.0 N 10.7 0.0 0.0
16:50 14.0 7.8 66 1024.6 6.0 N 9.2 0.0 0.0
16:51 14.0 7.8 66 1024.5 6.0 N 9.2 0.0 0.0
16:52 14.1 7.6 65 1024.5 8.3 NW 8.3 0.0 0.0
16:53 14.2 7.5 64 1024.5 9.2 SW 9.2 0.0 0.0
16:54 14.2 7.5 64 1024.7 9.2 SW 9.2 0.0 0.0
16:55 14.3 7.6 64 1024.5 6.0 W 9.2 0.0 0.0
16:56 14.4 7.7 64 1024.4 6.9 E 9.2 0.0 0.0
16:57 14.5 7.8 64 1024.7 9.2 E 9.2 0.0 0.0
16:58 14.5 7.8 64 1024.4 9.2 E 9.2 0.0 0.0
16:59 14.7 7.7 63 1024.6 8.3 NW 9.2 0.0 0.0
17:01 14.7 7.7 63 1024.4 8.3 NW 9.2 0.0 0.0
17:02 14.7 7.7 63 1024.5 8.3 NW 9.2 0.0 0.0
17:03 14.7 7.7 63 1024.5 8.3 NW 9.2 0.0 0.0
17:04 14.7 7.7 63 1024.6 8.3 NW 9.2 0.0 0.0
17:05 14.7 7.7 63 1024.4 8.3 NW 9.2 0.0 0.0
17:06 14.7 7.7 63 1024.5 8.3 NW 9.2 0.0 0.0
17:07 14.8 7.6 62 1024.6 5.4 N 9.2 0.0 0.0
17:08 14.8 7.6 62 1024.3 5.4 N 9.2 0.0 0.0
17:09 14.8 7.6 62 1024.7 5.4 NW 9.2 0.0 0.0
17:10 14.8 7.6 62 1024.6 8.3 NW 8.3 0.0 0.0
17:11 14.8 7.6 62 1024.5 8.3 N 8.3 0.0 0.0
17:12 14.8 7.6 62 1024.5 4.5 NW 8.3 0.0 0.0
17:13 14.8 7.6 62 1024.5 5.4 SW 8.3 0.0 0.0
17:14 14.8 7.6 62 1024.5 5.4 N 8.3 0.0 0.0
17:15 14.8 7.6 62 1024.6 5.4 N 8.3 0.0 0.0
17:16 14.8 7.6 62 1024.5 9.2 NW 9.2 0.0 0.0
17:17 14.9 7.7 62 1024.6 6.0 N 9.2 0.0 0.0
17:18 14.9 7.7 62 1024.7 6.9 NE 9.2 0.0 0.0
17:19 14.9 7.7 62 1024.5 8.3 N 9.2 0.0 0.0
17:20 14.9 7.7 62 1024.6 9.2 S 9.2 0.0 0.0
17:21 14.9 7.7 62 1024.6 6.9 NW 9.2 0.0 0.0
17:22 14.9 7.7 62 1024.6 6.9 NE 9.2 0.0 0.0
17:23 14.9 7.5 61 1024.6 7.6 W 9.2 0.0 0.0
17:25 15.0 7.5 61 1024.6 9.2 E 9.2 0.0 0.0
17:26 15.0 7.5 61 1024.6 6.0 W 9.2 0.0 0.0
17:27 15.0 7.8 62 1024.7 6.0 NE 9.2 0.0 0.0
17:28 15.0 7.8 62 1024.5 5.4 NE 9.2 0.0 0.0
17:29 15.0 7.8 62 1024.7 4.5 NE 9.2 0.0 0.0
17:30 15.0 7.8 62 1024.6 6.9 NE 9.2 0.0 0.0
17:31 15.0 7.8 62 1024.4 6.9 NE 9.2 0.0 0.0
17:32 14.9 7.7 62 1024.5 5.4 NW 9.2 0.0 0.0
17:33 14.9 7.7 62 1024.4 5.4 NW 9.2 0.0 0.0
17:34 14.8 7.6 62 1024.6 5.4 E 9.2 0.0 0.0
17:35 14.8 7.4 61 1024.5 5.4 NE 9.2 0.0 0.0
17:36 14.7 7.3 61 1024.7 7.6 SW 7.6 0.0 0.0
17:37 14.6 7.4 62 1024.6 5.4 W 7.6 0.0 0.0
17:38 14.6 7.4 62 1024.5 5.4 W 7.6 0.0 0.0
17:39 14.5 7.3 62 1024.7 5.4 NW 7.6 0.0 0.0
17:40 14.5 7.3 62 1024.6 5.4 NW 7.6 0.0 0.0
17:41 14.5 7.3 62 1024.6 6.0 NE 7.6 0.0 0.0
17:42 14.4 7.2 62 1024.5 6.0 E 7.6 0.0 0.0
17:44 14.2 7.0 62 1024.6 9.2 W 9.8 0.0 0.0
17:45 14.1 6.9 62 1024.6 9.8 NE 9.8 0.0 0.0
17:46 14.0 6.8 62 1024.5 9.8 NE 9.8 0.0 0.0
17:47 13.8 6.6 62 1024.4 4.5 SSW 9.8 0.0 0.0
17:48 13.7 6.6 62 1024.6 4.5 NE 9.8 0.0 0.0
17:49 13.7 6.6 62 1024.5 7.6 NW 9.8 0.0 0.0
17:50 13.7 6.6 62 1024.5 7.6 NW 9.8 0.0 0.0
17:51 13.5 6.4 62 1024.4 9.2 NW 9.8 0.0 0.0
17:52 13.4 6.5 63 1024.5 4.5 N 9.8 0.0 0.0
17:53 13.4 6.5 63 1024.3 9.8 NE 9.8 0.0 0.0
17:54 13.3 6.4 63 1024.5 9.8 NE 9.8 0.0 0.0
17:55 13.2 6.3 63 1024.6 12.1 N 12.1 0.0 0.0
17:56 13.2 6.3 63 1024.4 11.4 N 12.1 0.0 0.0
17:57 13.1 6.2 63 1024.6 9.8 W 12.1 0.0 0.0
17:58 13.0 6.4 64 1024.5 7.6 E 12.1 0.0 0.0
17:59 13.0 6.4 64 1024.6 5.4 NE 12.1 0.0 0.0
18:00 12.9 6.3 64 1024.5 7.6 NE 12.1 0.0 0.0
18:01 12.8 6.2 64 1024.5 7.6 SW 12.1 0.0 0.0
18:02 12.8 6.2 64 1024.5 6.9 N 12.1 0.0 0.0
18:03 12.8 6.2 64 1024.2 6.9 W 12.1 0.0 0.0
18:05 12.7 6.3 65 1024.5 10.7 W 13.6 0.0 0.0
18:06 12.7 6.3 65 1024.3 10.7 N 13.6 0.0 0.0
18:07 12.6 6.2 65 1024.4 16.8 NE 16.8 0.0 0.0
18:08 12.6 6.2 65 1024.6 9.2 NW 16.8 0.0 0.0
18:09 12.6 6.2 65 1024.5 9.8 NW 16.8 0.0 0.0
18:10 12.6 6.2 65 1024.4 9.8 NW 16.8 0.0 0.0
18:11 12.5 6.3 66 1024.5 11.4 NE 16.8 0.0 0.0
18:12 12.5 6.3 66 1024.4 11.4 NNE 16.8 0.0 0.0
18:13 12.5 6.3 66 1024.4 11.4 W 16.8 0.0 0.0
18:14 12.5 6.3 66 1024.4 8.3 N 16.8 0.0 0.0
18:15 12.5 6.3 66 1024.5 9.2 N 16.8 0.0 0.0
18:16 12.5 6.3 66 1024.6 9.8 N 16.8 0.0 0.0
18:17 12.5 6.3 66 1024.6 7.6 NE 16.8 0.0 0.0
18:18 12.5 6.5 67 1024.6 15.2 N 16.8 0.0 0.0
18:19 12.5 6.5 67 1024.4 9.8 NE 15.2 0.0 0.0
18:20 12.4 7.1 70 1024.5 7.6 NW 15.2 0.0 0.0
18:21 12.4 7.1 70 1024.5 9.2 N 15.2 0.0 0.0
18:22 12.4 7.1 70 1024.6 9.2 NE 15.2 0.0 0.0
18:24 12.3 7.0 70 1024.5 13.0 N 15.2 0.0 0.0
18:25 12.2 6.9 70 1024.4 9.2 NE 15.2 0.0 0.0
18:26 12.2 7.1 71 1024.6 8.3 NE 15.2 0.0 0.0
18:27 12.1 7.0 71 1024.6 9.2 N 15.2 0.0 0.0
18:28 12.1 7.0 71 1024.4 9.2 N 13.0 0.0 0.0
18:29 12.1 7.0 71 1024.3 9.8 N 13.0 0.0 0.0
18:30 12.1 7.0 71 1024.5 7.6 NE 13.0 0.0 0.0
18:31 12.0 6.9 71 1024.4 9.8 NE 13.0 0.0 0.0
18:32 12.0 6.9 71 1024.4 9.8 NE 13.0 0.0 0.0
18:33 12.0 6.9 71 1024.6 6.9 NE 13.0 0.0 0.0
18:34 12.0 6.9 71 1024.4 9.2 ENE 13.0 0.0 0.0
18:35 11.9 6.8 71 1024.5 7.6 SW 9.8 0.0 0.0
18:36 11.9 6.8 71 1024.2 9.8 NE 9.8 0.0 0.0
18:37 11.8 6.7 71 1024.3 6.9 W 9.8 0.0 0.0
18:38 11.8 6.7 71 1024.5 5.4 NE 9.8 0.0 0.0
18:39 11.8 6.9 72 1024.4 8.3 NE 9.8 0.0 0.0
18:40 11.8 6.9 72 1024.5 6.9 N 9.8 0.0 0.0
18:41 11.7 6.8 72 1024.3 9.2 NE 9.8 0.0 0.0
18:43 11.7 6.8 72 1024.3 9.2 N 10.7 0.0 0.0
18:44 11.7 6.8 72 1024.4 10.7 N 10.7 0.0 0.0
18:45 11.7 6.8 72 1024.3 10.7 NNE 10.7 0.0 0.0
18:46 11.7 6.8 72 1024.4 10.7 NNE 10.7 0.0 0.0
18:47 11.6 6.7 72 1024.3 12.1 N 12.1 0.0 0.0
18:48 11.6 6.7 72 1024.4 8.3 N 12.1 0.0 0.0
18:49 11.5 6.6 72 1024.5 5.4 NE 12.1 0.0 0.0
18:50 11.5 6.8 73 1024.4 9.2 SW 12.1 0.0 0.0
18:51 11.5 6.8 73 1024.4 9.2 N 12.1 0.0 0.0
18:52 11.5 6.8 73 1024.3 9.2 NW 12.1 0.0 0.0
18:53 11.4 6.7 73 1024.3 9.2 NE 12.1 0.0 0.0
18:54 11.4 6.7 73 1024.4 7.6 N 12.1 0.0 0.0
18:55 11.4 6.7 73 1024.4 8.3 NE 12.1 0.0 0.0
18:56 11.4 6.7 73 1024.1 8.3 W 12.1 0.0 0.0
18:57 11.4 6.7 73 1024.3 6.9 NW 12.1 0.0 0.0
18:58 11.4 6.7 73 1024.1 6.0 N 11.4 0.0 0.0
18:59 11.4 6.7 73 1024.3 7.6 NE 11.4 0.0 0.0
19:00 11.4 6.9 74 1024.4 7.6 NE 11.4 0.0 0.0
19:01 11.4 6.9 74 1024.2 7.6 NE 11.4 0.0 0.0
19:02 11.4 6.9 74 1024.1 7.6 NE 9.2 0.0 0.0
19:03 11.3 6.8 74 1024.3 7.6 NE 9.2 0.0 0.0
19:04 11.3 6.8 74 1024.3 5.4 N 8.3 0.0 0.0
19:06 11.3 6.8 74 1024.2 6.9 NW 8.3 0.0 0.0
19:07 11.2 6.7 74 1024.2 13.6 E 13.6 0.0 0.0
19:08 11.2 6.7 74 1024.4 6.0 NE 13.6 0.0 0.0
19:09 11.2 6.7 74 1024.2 9.8 N 13.6 0.0 0.0
19:10 11.2 6.7 74 1024.2 9.8 N 13.6 0.0 0.0
19:11 11.2 6.7 74 1024.2 12.1 N 13.6 0.0 0.0
19:12 11.2 6.7 74 1024.2 5.4 NNE 13.6 0.0 0.0
19:13 11.1 6.6 74 1024.2 5.4 NE 13.6 0.0 0.0
19:14 11.1 6.6 74 1024.1 6.0 N 13.6 0.0 0.0
19:15 11.1 6.6 74 1024.3 9.8 NW 13.6 0.0 0.0
19:16 11.1 6.6 74 1024.3 8.3 NE 13.6 0.0 0.0
19:17 11.1 6.6 74 1024.2 8.3 NW 13.6 0.0 0.0
19:18 11.1 6.6 74 1024.3 4.5 S 12.1 0.0 0.0
19:19 11.1 6.6 74 1024.1 6.9 SE 12.1 0.0 0.0
19:20 11.0 6.5 74 1024.1 11.4 N 12.1 0.0 0.0
19:21 11.0 6.5 74 1024.1 7.6 NW 12.1 0.0 0.0
19:22 11.0 6.5 74 1024.1 3.8 N 11.4 0.0 0.0
19:23 11.0 6.7 75 1024.3 3.8 NE 11.4 0.0 0.0
19:24 11.0 6.7 75 1024.1 6.0 N 11.4 0.0 0.0
19:25 10.9 6.6 75 1024.0 4.5 N 11.4 0.0 0.0
19:26 10.9 6.6 75 1024.1 6.9 N 11.4 0.0 0.0
19:27 10.9 6.6 75 1024.3 6.9 N 11.4 0.0 0.0
19:28 10.9 6.6 75 1024.2 8.3 NE 11.4 0.0 0.0
19:29 10.8 6.5 75 1023.8 8.3 NE 11.4 0.0 0.0
19:31 10.8 6.5 75 1024.4 6.0 NE 8.3 0.0 0.0
19:32 10.8 6.5 75 1024.1 9.2 W 9.2 0.0 0.0
19:33 10.8 6.7 76 1024.1 5.4 SE 9.2 0.0 0.0
19:34 10.7 6.6 76 1024.1 11.4 SE 11.4 0.0 0.0
19:35 10.7 6.6 76 1024.2 9.2 W 11.4 0.0 0.0
19:36 10.7 6.6 76 1024.1 9.2 S 11.4 0.0 0.0
19:37 10.7 6.6 76 1024.1 6.9 N 11.4 0.0 0.0
19:38 10.7 6.6 76 1024.3 4.5 N 11.4 0.0 0.0
19:39 10.6 6.5 76 1024.1 8.3 NW 11.4 0.0 0.0
19:40 10.6 6.5 76 1024.1 8.3 NW 11.4 0.0 0.0
19:41 10.6 6.7 77 1024.3 5.4 NE 11.4 0.0 0.0
19:42 10.6 6.7 77 1024.0 8.3 NW 11.4 0.0 0.0
19:43 10.6 6.7 77 1023.9 6.9 NW 11.4 0.0 0.0
19:44 10.6 6.7 77 1024.1 6.9 SE 11.4 0.0 0.0
19:45 10.6 6.7 77 1023.9 9.8 E 9.8 0.0 0.0
19:46 10.6 6.7 77 1024.1 9.8 NE 9.8 0.0 0.0
19:47 10.6 6.7 77 1024.2 7.6 NE 9.8 0.0 0.0
19:48 10.6 6.7 77 1024.2 4.5 NE 9.8 0.0 0.0
19:49 10.5 6.8 78 1024.1 9.2 NE 9.8 0.0 0.0
19:51 10.5 6.8 78 1024.0 7.6 N 9.8 0.0 0.0
19:52 10.5 6.8 78 1023.9 4.5 W 9.8 0.0 0.0
19:53 10.5 6.8 78 1024.1 4.5 SW 9.8 0.0 0.0
19:54 10.5 6.8 78 1024.1 6.0 N 9.8 0.0 0.0
19:55 10.5 6.8 78 1024.1 5.4 N 9.8 0.0 0.0
19:56 10.5 6.8 78 1024.1 4.5 NE 9.2 0.0 0.0
19:57 10.5 6.8 78 1024.0 6.9 NW 9.2 0.0 0.0
19:58 10.5 6.8 78 1024.2 6.0 N 9.2 0.0 0.0
19:59 10.4 6.7 78 1023.9 3.8 NE 9.2 0.0 0.0
20:00 10.4 6.7 78 1024.1 7.6 N 9.2 0.0 0.0
20:01 10.4 6.7 78 1024.1 7.6 N 8.3 0.0 0.0
20:02 10.4 6.7 78 1024.1 7.6 N 7.6 0.0 0.0
20:03 10.4 6.7 78 1024.0 7.6 N 7.6 0.0 0.0
20:04 10.4 6.7 78 1024.2 7.6 N 7.6 0.0 0.0
20:05 10.4 6.7 78 1024.3 7.6 N 7.6 0.0 0.0
20:06 10.4 6.7 78 1024.3 7.6 N 7.6 0.0 0.0
20:07 10.3 6.8 79 1024.3 4.5 SE 7.6 0.0 0.0
20:09 10.3 6.8 79 1024.2 3.8 N 7.6 0.0 0.0
20:10 10.3 6.8 79 1024.2 6.9 N 7.6 0.0 0.0
20:11 10.3 7.0 80 1023.9 3.1 N 7.6 0.0 0.0
20:12 10.3 7.0 80 1024.0 6.0 N 7.6 0.0 0.0
20:13 10.3 7.0 80 1024.2 9.8 N 9.8 0.0 0.0
20:14 10.3 7.0 80 1023.9 6.0 W 9.8 0.0 0.0
20:15 10.2 6.9 80 1024.2 6.0 W 9.8 0.0 0.0
20:16 10.2 6.9 80 1024.3 3.8 N 9.8 0.0 0.0
20:17 10.2 6.9 80 1024.1 3.1 NW 9.8 0.0 0.0
20:18 10.2 6.9 80 1024.1 4.5 N 9.8 0.0 0.0
20:19 10.2 6.9 80 1024.3 3.8 NW 9.8 0.0 0.0
20:20 10.2 6.9 80 1024.4 4.5 N 9.8 0.0 0.0
20:21 10.2 6.9 80 1024.2 6.0 NW 9.8 0.0 0.0
20:22 10.2 6.9 80 1024.3 6.0 NW 9.8 0.0 0.0
20:23 10.2 6.9 80 1024.3 6.0 E 9.8 0.0 0.0
20:24 10.2 6.9 80 1024.2 4.5 N 6.0 0.0 0.0
20:25 10.2 6.9 80 1024.2 5.4 N 6.9 0.0 0.0
20:26 10.2 6.9 80 1024.4 5.4 NW 6.9 0.0 0.0
20:27 10.2 6.9 80 1024.3 6.9 NE 6.9 0.0 0.0
20:29 10.1 6.8 80 1024.3 5.4 NW 7.6 0.0 0.0
20:30 10.1 7.0 81 1024.4 5.4 W 7.6 0.0 0.0
20:31 10.1 7.0 81 1024.1 6.9 S 7.6 0.0 0.0
20:32 10.1 7.0 81 1024.4 8.3 W 8.3 0.0 0.0
20:33 10.1 7.0 81 1024.4 8.3 W 8.3 0.0 0.0
20:34 10.1 7.0 81 1024.3 8.3 W 8.3 0.0 0.0
20:35 10.1 7.0 81 1024.4 6.0 W 8.3 0.0 0.0
20:36 10.1 7.0 81 1024.4 6.0 W 8.3 0.0 0.0
20:37 10.1 7.0 81 1024.4 5.4 NE 8.3 0.0 0.0
20:38 10.1 7.0 81 1024.1 7.6 NW 8.3 0.0 0.0
20:39 10.1 7.0 81 1024.4 6.9 N 8.3 0.0 0.0
20:40 10.1 7.0 81 1024.4 4.5 N 8.3 0.0 0.0
20:41 10.1 7.0 81 1024.4 6.9 S 8.3 0.0 0.0
20:42 10.1 7.0 81 1024.5 5.4 N 8.3 0.0 0.0
20:43 10.1 7.0 81 1024.4 8.3 N 8.3 0.0 0.0
20:44 10.1 7.0 81 1024.4 8.3 NE 8.3 0.0 0.0
20:45 10.1 7.0 81 1024.3 4.5 N 8.3 0.0 0.0
20:46 10.1 7.0 81 1024.3 3.8 N 8.3 0.0 0.0
20:48 10.1 7.0 81 1024.3 6.9 NW 8.3 0.0 0.0
20:49 10.1 7.0 81 1024.3 6.0 N 8.3 0.0 0.0
20:50 10.1 7.0 81 1024.5 4.5 W 8.3 0.0 0.0
20:51 10.1 7.0 81 1024.4 6.9 W 8.3 0.0 0.0
20:52 10.0 6.9 81 1024.5 5.4 N 8.3 0.0 0.0
20:53 10.0 6.9 81 1024.4 3.8 N 8.3 0.0 0.0
20:54 10.0 7.1 82 1024.6 5.4 NW 6.9 0.0 0.0
20:55 10.0 7.1 82 1024.5 3.1 N 6.9 0.0 0.0
20:56 10.0 7.1 82 1024.5 7.6 NW 7.6 0.0 0.0
20:57 10.0 7.1 82 1024.5 6.0 N 7.6 0.0 0.0
20:58 10.0 7.1 82 1024.4 6.0 NW 7.6 0.0 0.0
20:59 10.0 7.1 82 1024.5 5.4 NW 7.6 0.0 0.0
21:00 10.0 7.1 82 1024.5 3.1 N 7.6 0.0 0.0
21:01 10.0 7.1 82 1024.3 3.1 N 7.6 0.0 0.0
21:02 10.0 7.1 82 1024.5 3.1 N 7.6 0.0 0.0
21:03 10.0 7.1 82 1024.5 3.1 N 7.6 0.0 0.0
21:04 10.0 7.1 82 1024.4 3.1 N 7.6 0.0 0.0
21:05 10.0 7.1 82 1024.5 3.1 N 7.6 0.0 0.0
21:07 10.0 7.1 82 1024.4 6.0 NW 6.0 0.0 0.0
21:08 10.0 7.1 82 1024.4 5.4 NW 6.0 0.0 0.0
21:09 10.0 7.1 82 1024.7 4.5 NW 6.0 0.0 0.0
21:10 10.0 7.1 82 1024.6 4.5 N 6.0 0.0 0.0
21:11 10.0 7.1 82 1024.5 4.5 NE 6.0 0.0 0.0
21:12 10.0 7.1 82 1024.6 6.9 N 6.9 0.0 0.0
21:13 10.0 7.1 82 1024.5 5.4 N 6.9 0.0 0.0
21:14 10.0 7.1 82 1024.6 6.9 NE 6.9 0.0 0.0
21:15 10.0 7.1 82 1024.5 6.9 SW 6.9 0.0 0.0
21:16 10.0 7.1 82 1024.6 5.4 N 6.9 0.0 0.0
21:17 10.0 7.1 82 1024.5 5.4 SE 6.9 0.0 0.0
21:18 10.0 7.1 82 1024.7 5.4 NW 6.9 0.0 0.0
21:19 10.0 7.1 82 1024.5 5.4 NW 6.9 0.0 0.0
21:20 10.0 7.1 82 1024.7 5.4 NW 6.9 0.0 0.0
21:21 9.9 7.0 82 1024.5 5.4 N 6.9 0.0 0.0
21:22 9.9 7.0 82 1024.3 5.4 NE 6.9 0.0 0.0
21:23 9.9 7.0 82 1024.4 4.5 W 6.9 0.0 0.0
21:24 9.9 7.0 82 1024.6 5.4 NW 6.9 0.0 0.0
21:25 9.9 7.0 82 1024.5 5.4 NW 6.9 0.0 0.0
21:26 9.9 7.0 82 1024.6 5.4 N 5.4 0.0 0.0
21:28 9.9 7.0 82 1024.6 5.4 SW 6.9 0.0 0.0
21:29 9.9 7.0 82 1024.4 5.4 WNW 6.9 0.0 0.0
21:30 9.9 7.0 82 1024.5 3.8 NW 6.9 0.0 0.0
21:31 9.9 7.0 82 1024.4 4.5 W 6.9 0.0 0.0
21:32 9.9 7.0 82 1024.5 6.0 N 6.9 0.0 0.0
21:33 9.9 7.0 82 1024.5 7.6 N 7.6 0.0 0.0
21:34 9.9 7.0 82 1024.6 4.5 N 7.6 0.0 0.0
21:35 9.9 7.0 82 1024.5 7.6 SW 7.6 0.0 0.0
21:36 9.9 7.0 82 1024.5 7.6 SW 7.6 0.0 0.0
21:37 9.9 7.0 82 1024.5 5.4 SE 7.6 0.0 0.0
21:38 9.9 7.0 82 1024.7 5.4 N 7.6 0.0 0.0
21:39 9.9 7.0 82 1024.6 5.4 NE 7.6 0.0 0.0
21:40 9.9 7.0 82 1024.6 5.4 NE 7.6 0.0 0.0
21:41 9.9 7.0 82 1024.4 6.9 NW 7.6 0.0 0.0
21:42 9.8 6.9 82 1024.4 4.5 W 7.6 0.0 0.0
21:43 9.8 6.9 82 1024.5 5.4 NW 7.6 0.0 0.0
21:44 9.8 6.9 82 1024.4 4.5 NW 7.6 0.0 0.0
21:45 9.8 6.9 82 1024.7 5.4 NW 7.6 0.0 0.0
21:46 9.8 6.9 82 1024.5 3.8 E 6.9 0.0 0.0
21:48 9.8 7.1 83 1024.6 5.4 NW 7.6 0.0 0.0
21:49 9.8 7.1 83 1024.6 6.9 NW 7.6 0.0 0.0
21:50 9.8 7.1 83 1024.6 6.0 N 7.6 0.0 0.0
21:51 9.8 7.1 83 1024.6 3.8 WNW 7.6 0.0 0.0
21:52 9.8 7.1 83 1024.7 2.2 N 7.6 0.0 0.0
21:53 9.8 7.1 83 1024.7 5.4 SW 7.6 0.0 0.0
21:54 9.8 7.1 83 1024.5 3.1 SE 7.6 0.0 0.0
21:55 9.8 7.1 83 1024.7 4.5 SW 7.6 0.0 0.0
21:56 9.8 7.1 83 1024.7 4.5 SW 7.6 0.0 0.0
21:57 9.8 7.1 83 1024.6 3.1 NW 7.6 0.0 0.0
21:58 9.8 7.1 83 1024.6 3.1 W 6.9 0.0 0.0
21:59 9.8 7.1 83 1024.7 3.1 NE 6.9 0.0 0.0
22:00 9.8 7.1 83 1024.5 5.4 N 6.0 0.0 0.0
22:01 9.8 7.1 83 1024.7 2.2 N 6.0 0.0 0.0
22:02 9.8 7.1 83 1024.5 6.9 WNW 6.9 0.0 0.0
22:03 9.8 7.1 83 1024.6 4.5 W 6.9 0.0 0.0
22:04 9.8 7.1 83 1024.6 3.8 W 6.9 0.0 0.0
22:05 9.8 7.1 83 1024.8 1.6 SE 6.9 0.0 0.0
22:07 9.8 7.1 83 1024.5 3.1 NW 6.9 0.0 0.0
22:08 9.8 7.1 83 1024.9 2.2 N 6.9 0.0 0.0
22:09 9.8 7.1 83 1024.8 2.2 NE 6.9 0.0 0.0
22:10 9.8 7.1 83 1024.8 3.1 NW 6.9 0.0 0.0
22:11 9.8 7.1 83 1024.9 3.1 NW 6.9 0.0 0.0
22:12 9.8 7.1 83 1024.6 5.4 NE 5.4 0.0 0.0
22:13 9.8 7.1 83 1024.9 3.8 NW 5.4 0.0 0.0
22:14 9.8 7.1 83 1024.9 2.2 NW 5.4 0.0 0.0
22:15 9.8 7.1 83 1024.8 4.5 W 5.4 0.0 0.0
22:16 9.8 7.1 83 1024.6 3.8 SW 5.4 0.0 0.0
22:17 9.8 7.1 83 1025.0 3.1 NW 5.4 0.0 0.0
22:18 9.8 7.1 83 1024.8 3.1 W 5.4 0.0 0.0
22:19 9.8 7.1 83 1025.0 2.2 NW 5.4 0.0 0.0
22:20 9.8 7.1 83 1024.7 4.5 NW 5.4 0.0 0.0
22:21 9.8 7.1 83 1024.8 3.8 N 5.4 0.0 0.0
22:22 9.8 7.1 83 1024.9 3.1 WNW 5.4 0.0 0.0
22:23 9.8 7.1 83 1024.8 4.5 E 4.5 0.0 0.0
22:24 9.8 7.1 83 1024.7 4.5 NW 4.5 0.0 0.0
22:26 9.8 7.1 83 1024.8 3.1 NW 4.5 0.0 0.0
22:27 9.8 7.1 83 1024.9 3.1 W 4.5 0.0 0.0
22:28 9.8 7.1 83 1025.0 3.1 N 4.5 0.0 0.0
22:29 9.8 7.1 83 1024.9 3.8 NW 4.5 0.0 0.0
22:30 9.8 7.1 83 1024.8 2.2 NE 4.5 0.0 0.0
22:31 9.8 7.1 83 1024.9 2.2 NW 4.5 0.0 0.0
22:32 9.8 7.1 83 1024.9 4.5 NW 4.5 0.0 0.0
22:33 9.8 7.1 83 1024.9 2.2 NE 4.5 0.0 0.0
22:34 9.8 7.1 83 1024.9 3.8 N 4.5 0.0 0.0
22:35 9.8 7.1 83 1024.9 6.0 SE 6.0 0.0 0.0
22:36 9.8 7.1 83 1024.6 6.0 NW 6.0 0.0 0.0
22:37 9.8 7.1 83 1024.9 6.0 NW 6.0 0.0 0.0
22:38 9.8 7.1 83 1025.0 6.0 NW 6.0 0.0 0.0
22:39 9.8 7.1 83 1024.8 3.8 W 6.0 0.0 0.0
22:40 9.8 7.1 83 1024.7 3.8 SW 6.0 0.0 0.0
22:42 9.8 7.1 83 1024.8 4.5 NW 6.0 0.0 0.0
22:43 9.8 7.1 83 1024.7 4.5 E 6.0 0.0 0.0
22:44 9.8 7.1 83 1024.8 4.5 N 6.0 0.0 0.0
22:45 9.8 7.1 83 1024.7 3.8 NE 6.0 0.0 0.0
22:46 9.8 7.1 83 1024.8 3.1 NW 6.0 0.0 0.0
22:48 9.8 7.1 83 1024.6 2.2 NE 4.5 0.0 0.0
22:49 9.8 7.1 83 1024.8 3.1 NW 4.5 0.0 0.0
22:50 9.8 7.1 83 1024.6 3.1 NW 4.5 0.0 0.0
22:51 9.8 7.1 83 1024.6 6.0 NE 6.0 0.0 0.0
22:52 9.8 7.1 83 1024.7 3.1 NE 6.0 0.0 0.0
22:53 9.8 7.1 83 1024.6 3.1 NW 6.0 0.0 0.0
22:54 9.8 7.1 83 1024.6 3.1 NW 6.0 0.0 0.0
22:55 9.8 7.1 83 1024.8 4.5 E 6.0 0.0 0.0
22:56 9.8 7.1 83 1024.7 3.8 NW 6.0 0.0 0.0
22:57 9.8 7.1 83 1024.7 3.8 W 6.0 0.0 0.0
22:58 9.8 7.1 83 1024.9 3.8 N 6.0 0.0 0.0
22:59 9.8 7.1 83 1024.6 3.1 NW 6.0 0.0 0.0
23:00 9.8 7.1 83 1024.4 4.5 NNE 6.0 0.0 0.0
23:01 9.8 7.1 83 1024.6 4.5 NNE 6.0 0.0 0.0
23:02 9.8 7.1 83 1024.5 4.5 NNE 4.5 0.0 0.0
23:03 9.8 7.1 83 1024.5 4.5 NNE 4.5 0.0 0.0
23:04 9.8 7.1 83 1024.5 4.5 NNE 4.5 0.0 0.0
23:05 9.8 7.1 83 1024.4 4.5 NNE 4.5 0.0 0.0
23:06 9.8 7.1 83 1024.7 4.5 NNE 4.5 0.0 0.0
23:08 9.8 7.1 83 1024.7 3.1 N 4.5 0.0 0.0
23:09 9.8 7.1 83 1024.5 3.8 NW 4.5 0.0 0.0
23:10 9.8 7.1 83 1024.7 3.8 E 4.5 0.0 0.0
23:11 9.8 7.1 83 1024.5 6.0 NE 6.0 0.0 0.0
23:12 9.8 7.1 83 1024.6 6.0 NE 6.0 0.0 0.0
23:13 9.8 7.1 83 1024.6 6.0 N 6.0 0.0 0.0
23:14 9.8 7.1 83 1024.7 3.8 NE 6.0 0.0 0.0
23:15 9.8 7.1 83 1024.5 3.1 N 6.0 0.0 0.0
23:16 9.8 7.1 83 1024.5 3.1 N 6.0 0.0 0.0
23:17 9.8 7.1 83 1024.9 3.8 NW 6.0 0.0 0.0
23:18 9.8 7.1 83 1024.5 3.1 N 6.0 0.0 0.0
23:19 9.8 7.1 83 1024.6 3.1 N 6.0 0.0 0.0
23:20 9.8 7.1 83 1024.5 2.2 W 6.0 0.0 0.0
23:21 9.8 7.1 83 1024.6 3.1 NE 6.0 0.0 0.0
23:22 9.8 7.1 83 1024.6 5.4 N 6.0 0.0 0.0
23:23 9.8 7.1 83 1024.7 3.8 NW 6.0 0.0 0.0
23:24 9.8 7.1 83 1024.7 3.1 N 5.4 0.0 0.0
23:25 9.8 7.1 83 1024.6 3.1 NW 5.4 0.0 0.0
23:26 9.8 7.1 83 1024.7 2.2 N 5.4 0.0 0.0
23:27 9.8 7.1 83 1024.7 2.2 NW 5.4 0.0 0.0
23:29 9.8 7.1 83 1024.5 5.4 NW 5.4 0.0 0.0
23:30 9.8 7.1 83 1024.6 5.4 N 5.4 0.0 0.0
23:31 9.8 7.1 83 1024.8 5.4 NW 6.0 0.0 0.0
23:32 9.8 7.1 83 1024.7 3.8 N 6.0 0.0 0.0
23:33 9.8 7.1 83 1024.5 3.8 N 6.0 0.0 0.0
23:34 9.8 7.1 83 1024.6 3.8 NW 6.0 0.0 0.0
23:35 9.8 6.9 82 1024.6 3.8 N 6.0 0.0 0.0
23:36 9.8 6.9 82 1024.6 3.8 NW 6.0 0.0 0.0
23:37 9.8 6.9 82 1024.5 3.8 NW 6.0 0.0 0.0
23:38 9.8 6.9 82 1024.4 3.8 NW 6.0 0.0 0.0
23:39 9.8 6.9 82 1024.7 3.8 W 6.0 0.0 0.0
23:40 9.8 6.9 82 1024.5 3.1 N 6.0 0.0 0.0
23:41 9.8 6.9 82 1024.5 2.2 N 6.0 0.0 0.0
23:42 9.7 6.8 82 1024.3 2.2 E 5.4 0.0 0.0
23:43 9.7 6.8 82 1024.6 4.5 NE 4.5 0.0 0.0
23:44 9.7 6.8 82 1024.5 3.1 N 4.5 0.0 0.0
23:45 9.7 6.8 82 1024.6 3.8 SE 4.5 0.0 0.0
23:46 9.7 6.8 82 1024.5 3.8 W 4.5 0.0 0.0
23:47 9.7 6.8 82 1024.2 2.2 SE 4.5 0.0 0.0
23:48 9.7 6.8 82 1024.4 4.5 S 4.5 0.0 0.0
23:49 9.7 6.8 82 1024.4 1.6 N 4.5 0.0 0.0
23:51 9.7 6.8 82 1024.5 1.6 NW 4.5 0.0 0.0
23:52 9.7 6.8 82 1024.4 3.8 N 4.5 0.0 0.0
23:53 9.7 6.8 82 1024.5 1.6 N 4.5 0.0 0.0
23:54 9.7 6.8 82 1024.5 3.1 NW 4.5 0.0 0.0
23:55 9.7 7.0 83 1024.4 2.2 NW 4.5 0.0 0.0
23:56 9.7 7.0 83 1024.5 2.2 NW 4.5 0.0 0.0
23:57 9.7 7.0 83 1024.5 3.8 N 4.5 0.0 0.0
23:58 9.7 7.0 83 1024.3 3.8 N 4.5 0.0 0.0
23:59 9.7 7.0 83 1024.3 3.1 NNE 3.8 0.0 0.0

 

 

UK - WEATHER STATION TOPSITES - UK World Weather Websites

Copyright © Carnkie Weather 2009 - 2020.